<?xml version="1.0" encoding="UTF-8" standalone="no" ?>
<gpx xmlns="http://www.topografix.com/GPX/1/1" xmlns:xsi="http://www.w3.org/2001/XMLSchema-instance" xsi:schemaLocation="http://www.topografix.com/GPX/1/1 http://www.topografix.com/GPX/1/1/gpx.xsd" version="1.1" creator="VisuGPX - https://www.visugpx.com">
  <metadata>
    <name>Le Fanget</name>
  </metadata>
  <trk>
    <name><![CDATA[16-APR-22 15:07:14]]></name>
    <trkseg>
      <trkpt lat="44.32821" lon="6.32737">
        <ele>1458.94</ele>
        <time>2022-04-16T08:53:06Z</time>
      </trkpt>
      <trkpt lat="44.32819" lon="6.32735">
        <ele>1462.78</ele>
        <time>2022-04-16T08:53:39Z</time>
      </trkpt>
      <trkpt lat="44.32822" lon="6.32735">
        <ele>1462.3</ele>
        <time>2022-04-16T08:54:00Z</time>
      </trkpt>
      <trkpt lat="44.32826" lon="6.32733">
        <ele>1462.3</ele>
        <time>2022-04-16T08:54:04Z</time>
      </trkpt>
      <trkpt lat="44.32833" lon="6.32733">
        <ele>1461.34</ele>
        <time>2022-04-16T08:54:10Z</time>
      </trkpt>
      <trkpt lat="44.32845" lon="6.32747">
        <ele>1460.86</ele>
        <time>2022-04-16T08:54:26Z</time>
      </trkpt>
      <trkpt lat="44.32856" lon="6.32765">
        <ele>1460.86</ele>
        <time>2022-04-16T08:54:43Z</time>
      </trkpt>
      <trkpt lat="44.3286" lon="6.32769">
        <ele>1461.34</ele>
        <time>2022-04-16T08:54:48Z</time>
      </trkpt>
      <trkpt lat="44.32866" lon="6.3279">
        <ele>1461.34</ele>
        <time>2022-04-16T08:55:03Z</time>
      </trkpt>
      <trkpt lat="44.3287" lon="6.32808">
        <ele>1460.86</ele>
        <time>2022-04-16T08:55:14Z</time>
      </trkpt>
      <trkpt lat="44.32887" lon="6.32823">
        <ele>1459.9</ele>
        <time>2022-04-16T08:55:31Z</time>
      </trkpt>
      <trkpt lat="44.329" lon="6.32825">
        <ele>1460.38</ele>
        <time>2022-04-16T08:55:44Z</time>
      </trkpt>
      <trkpt lat="44.32916" lon="6.3283">
        <ele>1459.9</ele>
        <time>2022-04-16T08:55:58Z</time>
      </trkpt>
      <trkpt lat="44.32923" lon="6.32834">
        <ele>1460.38</ele>
        <time>2022-04-16T08:56:16Z</time>
      </trkpt>
      <trkpt lat="44.32927" lon="6.32838">
        <ele>1460.86</ele>
        <time>2022-04-16T08:56:30Z</time>
      </trkpt>
      <trkpt lat="44.32937" lon="6.32864">
        <ele>1461.82</ele>
        <time>2022-04-16T08:56:50Z</time>
      </trkpt>
      <trkpt lat="44.32932" lon="6.32891">
        <ele>1463.74</ele>
        <time>2022-04-16T08:57:09Z</time>
      </trkpt>
      <trkpt lat="44.32927" lon="6.32912">
        <ele>1463.74</ele>
        <time>2022-04-16T08:57:25Z</time>
      </trkpt>
      <trkpt lat="44.32929" lon="6.32935">
        <ele>1464.23</ele>
        <time>2022-04-16T08:57:41Z</time>
      </trkpt>
      <trkpt lat="44.32932" lon="6.32945">
        <ele>1464.71</ele>
        <time>2022-04-16T08:57:47Z</time>
      </trkpt>
      <trkpt lat="44.32937" lon="6.32967">
        <ele>1465.67</ele>
        <time>2022-04-16T08:58:00Z</time>
      </trkpt>
      <trkpt lat="44.32944" lon="6.32987">
        <ele>1467.11</ele>
        <time>2022-04-16T08:58:14Z</time>
      </trkpt>
      <trkpt lat="44.32944" lon="6.32988">
        <ele>1467.11</ele>
        <time>2022-04-16T08:58:15Z</time>
      </trkpt>
      <trkpt lat="44.32945" lon="6.33005">
        <ele>1468.55</ele>
        <time>2022-04-16T08:58:25Z</time>
      </trkpt>
      <trkpt lat="44.32944" lon="6.33012">
        <ele>1468.55</ele>
        <time>2022-04-16T08:58:29Z</time>
      </trkpt>
      <trkpt lat="44.32939" lon="6.33035">
        <ele>1469.99</ele>
        <time>2022-04-16T08:58:42Z</time>
      </trkpt>
      <trkpt lat="44.32941" lon="6.33059">
        <ele>1469.03</ele>
        <time>2022-04-16T08:58:57Z</time>
      </trkpt>
      <trkpt lat="44.32935" lon="6.33088">
        <ele>1466.63</ele>
        <time>2022-04-16T08:59:13Z</time>
      </trkpt>
      <trkpt lat="44.32925" lon="6.33096">
        <ele>1469.51</ele>
        <time>2022-04-16T08:59:28Z</time>
      </trkpt>
      <trkpt lat="44.3292" lon="6.33103">
        <ele>1469.99</ele>
        <time>2022-04-16T08:59:34Z</time>
      </trkpt>
      <trkpt lat="44.32915" lon="6.33115">
        <ele>1468.55</ele>
        <time>2022-04-16T08:59:41Z</time>
      </trkpt>
      <trkpt lat="44.32916" lon="6.33137">
        <ele>1467.59</ele>
        <time>2022-04-16T08:59:56Z</time>
      </trkpt>
      <trkpt lat="44.32916" lon="6.33142">
        <ele>1468.07</ele>
        <time>2022-04-16T08:59:59Z</time>
      </trkpt>
      <trkpt lat="44.32914" lon="6.3315">
        <ele>1468.55</ele>
        <time>2022-04-16T09:00:04Z</time>
      </trkpt>
      <trkpt lat="44.32911" lon="6.33156">
        <ele>1468.55</ele>
        <time>2022-04-16T09:00:09Z</time>
      </trkpt>
      <trkpt lat="44.32897" lon="6.33166">
        <ele>1470.95</ele>
        <time>2022-04-16T09:00:23Z</time>
      </trkpt>
      <trkpt lat="44.32889" lon="6.33165">
        <ele>1473.36</ele>
        <time>2022-04-16T09:00:31Z</time>
      </trkpt>
      <trkpt lat="44.32886" lon="6.33174">
        <ele>1473.36</ele>
        <time>2022-04-16T09:00:34Z</time>
      </trkpt>
      <trkpt lat="44.32879" lon="6.33195">
        <ele>1472.88</ele>
        <time>2022-04-16T09:00:48Z</time>
      </trkpt>
      <trkpt lat="44.32878" lon="6.33196">
        <ele>1473.36</ele>
        <time>2022-04-16T09:00:49Z</time>
      </trkpt>
      <trkpt lat="44.32877" lon="6.33202">
        <ele>1472.88</ele>
        <time>2022-04-16T09:00:54Z</time>
      </trkpt>
      <trkpt lat="44.32867" lon="6.3322">
        <ele>1472.88</ele>
        <time>2022-04-16T09:01:09Z</time>
      </trkpt>
      <trkpt lat="44.32863" lon="6.33225">
        <ele>1473.84</ele>
        <time>2022-04-16T09:01:13Z</time>
      </trkpt>
      <trkpt lat="44.32858" lon="6.33236">
        <ele>1474.32</ele>
        <time>2022-04-16T09:01:21Z</time>
      </trkpt>
      <trkpt lat="44.32855" lon="6.3324">
        <ele>1475.76</ele>
        <time>2022-04-16T09:01:25Z</time>
      </trkpt>
      <trkpt lat="44.32854" lon="6.33256">
        <ele>1477.68</ele>
        <time>2022-04-16T09:01:38Z</time>
      </trkpt>
      <trkpt lat="44.32857" lon="6.33257">
        <ele>1478.65</ele>
        <time>2022-04-16T09:01:42Z</time>
      </trkpt>
      <trkpt lat="44.32866" lon="6.33277">
        <ele>1480.09</ele>
        <time>2022-04-16T09:01:59Z</time>
      </trkpt>
      <trkpt lat="44.32864" lon="6.33301">
        <ele>1478.65</ele>
        <time>2022-04-16T09:02:15Z</time>
      </trkpt>
      <trkpt lat="44.32864" lon="6.33321">
        <ele>1478.16</ele>
        <time>2022-04-16T09:02:30Z</time>
      </trkpt>
      <trkpt lat="44.32864" lon="6.33325">
        <ele>1477.68</ele>
        <time>2022-04-16T09:02:33Z</time>
      </trkpt>
      <trkpt lat="44.32865" lon="6.33346">
        <ele>1476.24</ele>
        <time>2022-04-16T09:02:48Z</time>
      </trkpt>
      <trkpt lat="44.32861" lon="6.33371">
        <ele>1477.68</ele>
        <time>2022-04-16T09:03:03Z</time>
      </trkpt>
      <trkpt lat="44.32859" lon="6.33384">
        <ele>1478.65</ele>
        <time>2022-04-16T09:03:11Z</time>
      </trkpt>
      <trkpt lat="44.32859" lon="6.3341">
        <ele>1480.57</ele>
        <time>2022-04-16T09:03:26Z</time>
      </trkpt>
      <trkpt lat="44.32855" lon="6.33419">
        <ele>1482.01</ele>
        <time>2022-04-16T09:03:33Z</time>
      </trkpt>
      <trkpt lat="44.32848" lon="6.33425">
        <ele>1483.45</ele>
        <time>2022-04-16T09:03:37Z</time>
      </trkpt>
      <trkpt lat="44.32838" lon="6.33426">
        <ele>1486.34</ele>
        <time>2022-04-16T09:03:49Z</time>
      </trkpt>
      <trkpt lat="44.32818" lon="6.33428">
        <ele>1491.14</ele>
        <time>2022-04-16T09:04:07Z</time>
      </trkpt>
      <trkpt lat="44.32817" lon="6.33429">
        <ele>1491.62</ele>
        <time>2022-04-16T09:04:09Z</time>
      </trkpt>
      <trkpt lat="44.32816" lon="6.33447">
        <ele>1494.99</ele>
        <time>2022-04-16T09:04:24Z</time>
      </trkpt>
      <trkpt lat="44.32811" lon="6.33458">
        <ele>1496.91</ele>
        <time>2022-04-16T09:04:31Z</time>
      </trkpt>
      <trkpt lat="44.32808" lon="6.33485">
        <ele>1496.91</ele>
        <time>2022-04-16T09:04:46Z</time>
      </trkpt>
      <trkpt lat="44.32808" lon="6.33488">
        <ele>1496.91</ele>
        <time>2022-04-16T09:04:48Z</time>
      </trkpt>
      <trkpt lat="44.32807" lon="6.33495">
        <ele>1499.79</ele>
        <time>2022-04-16T09:05:05Z</time>
      </trkpt>
      <trkpt lat="44.32807" lon="6.33494">
        <ele>1499.79</ele>
        <time>2022-04-16T09:05:27Z</time>
      </trkpt>
      <trkpt lat="44.32807" lon="6.33508">
        <ele>1498.83</ele>
        <time>2022-04-16T09:05:39Z</time>
      </trkpt>
      <trkpt lat="44.32804" lon="6.33545">
        <ele>1494.03</ele>
        <time>2022-04-16T09:05:58Z</time>
      </trkpt>
      <trkpt lat="44.32803" lon="6.33556">
        <ele>1493.06</ele>
        <time>2022-04-16T09:06:04Z</time>
      </trkpt>
      <trkpt lat="44.32802" lon="6.33559">
        <ele>1492.58</ele>
        <time>2022-04-16T09:06:06Z</time>
      </trkpt>
      <trkpt lat="44.32802" lon="6.33563">
        <ele>1492.1</ele>
        <time>2022-04-16T09:06:12Z</time>
      </trkpt>
      <trkpt lat="44.32793" lon="6.3359">
        <ele>1489.22</ele>
        <time>2022-04-16T09:06:29Z</time>
      </trkpt>
      <trkpt lat="44.32793" lon="6.33592">
        <ele>1489.22</ele>
        <time>2022-04-16T09:06:30Z</time>
      </trkpt>
      <trkpt lat="44.32789" lon="6.33599">
        <ele>1488.74</ele>
        <time>2022-04-16T09:06:36Z</time>
      </trkpt>
      <trkpt lat="44.32785" lon="6.33603">
        <ele>1488.26</ele>
        <time>2022-04-16T09:06:40Z</time>
      </trkpt>
      <trkpt lat="44.32776" lon="6.33617">
        <ele>1487.78</ele>
        <time>2022-04-16T09:06:51Z</time>
      </trkpt>
      <trkpt lat="44.32771" lon="6.33623">
        <ele>1487.78</ele>
        <time>2022-04-16T09:06:56Z</time>
      </trkpt>
      <trkpt lat="44.32768" lon="6.33631">
        <ele>1487.3</ele>
        <time>2022-04-16T09:07:01Z</time>
      </trkpt>
      <trkpt lat="44.32766" lon="6.33635">
        <ele>1487.3</ele>
        <time>2022-04-16T09:07:04Z</time>
      </trkpt>
      <trkpt lat="44.32753" lon="6.33656">
        <ele>1487.3</ele>
        <time>2022-04-16T09:07:19Z</time>
      </trkpt>
      <trkpt lat="44.32742" lon="6.33678">
        <ele>1489.22</ele>
        <time>2022-04-16T09:07:34Z</time>
      </trkpt>
      <trkpt lat="44.32729" lon="6.33698">
        <ele>1489.22</ele>
        <time>2022-04-16T09:07:50Z</time>
      </trkpt>
      <trkpt lat="44.32715" lon="6.33723">
        <ele>1490.66</ele>
        <time>2022-04-16T09:08:08Z</time>
      </trkpt>
      <trkpt lat="44.32711" lon="6.33733">
        <ele>1490.66</ele>
        <time>2022-04-16T09:08:15Z</time>
      </trkpt>
      <trkpt lat="44.32711" lon="6.33737">
        <ele>1490.66</ele>
        <time>2022-04-16T09:08:17Z</time>
      </trkpt>
      <trkpt lat="44.32707" lon="6.33745">
        <ele>1490.18</ele>
        <time>2022-04-16T09:08:27Z</time>
      </trkpt>
      <trkpt lat="44.32702" lon="6.33746">
        <ele>1490.18</ele>
        <time>2022-04-16T09:08:31Z</time>
      </trkpt>
      <trkpt lat="44.32687" lon="6.33757">
        <ele>1493.06</ele>
        <time>2022-04-16T09:08:48Z</time>
      </trkpt>
      <trkpt lat="44.32675" lon="6.33758">
        <ele>1497.87</ele>
        <time>2022-04-16T09:08:59Z</time>
      </trkpt>
      <trkpt lat="44.32667" lon="6.33757">
        <ele>1499.79</ele>
        <time>2022-04-16T09:09:05Z</time>
      </trkpt>
      <trkpt lat="44.32654" lon="6.33755">
        <ele>1502.2</ele>
        <time>2022-04-16T09:09:14Z</time>
      </trkpt>
      <trkpt lat="44.3262" lon="6.33748">
        <ele>1507.97</ele>
        <time>2022-04-16T09:09:33Z</time>
      </trkpt>
      <trkpt lat="44.32599" lon="6.33748">
        <ele>1508.93</ele>
        <time>2022-04-16T09:09:49Z</time>
      </trkpt>
      <trkpt lat="44.32583" lon="6.33754">
        <ele>1508.93</ele>
        <time>2022-04-16T09:10:05Z</time>
      </trkpt>
      <trkpt lat="44.32567" lon="6.33758">
        <ele>1507.48</ele>
        <time>2022-04-16T09:10:17Z</time>
      </trkpt>
      <trkpt lat="44.32554" lon="6.33768">
        <ele>1507</ele>
        <time>2022-04-16T09:10:29Z</time>
      </trkpt>
      <trkpt lat="44.32541" lon="6.33785">
        <ele>1499.79</ele>
        <time>2022-04-16T09:10:44Z</time>
      </trkpt>
      <trkpt lat="44.32527" lon="6.338">
        <ele>1493.06</ele>
        <time>2022-04-16T09:10:59Z</time>
      </trkpt>
      <trkpt lat="44.3251" lon="6.33809">
        <ele>1491.14</ele>
        <time>2022-04-16T09:11:14Z</time>
      </trkpt>
      <trkpt lat="44.32509" lon="6.3381">
        <ele>1491.14</ele>
        <time>2022-04-16T09:11:20Z</time>
      </trkpt>
      <trkpt lat="44.32488" lon="6.33818">
        <ele>1490.66</ele>
        <time>2022-04-16T09:11:36Z</time>
      </trkpt>
      <trkpt lat="44.32468" lon="6.33835">
        <ele>1488.74</ele>
        <time>2022-04-16T09:11:53Z</time>
      </trkpt>
      <trkpt lat="44.32449" lon="6.33846">
        <ele>1489.22</ele>
        <time>2022-04-16T09:12:07Z</time>
      </trkpt>
      <trkpt lat="44.32429" lon="6.33851">
        <ele>1489.22</ele>
        <time>2022-04-16T09:12:22Z</time>
      </trkpt>
      <trkpt lat="44.32414" lon="6.33854">
        <ele>1490.18</ele>
        <time>2022-04-16T09:12:35Z</time>
      </trkpt>
      <trkpt lat="44.3239" lon="6.33864">
        <ele>1491.14</ele>
        <time>2022-04-16T09:12:51Z</time>
      </trkpt>
      <trkpt lat="44.32376" lon="6.33877">
        <ele>1490.18</ele>
        <time>2022-04-16T09:13:05Z</time>
      </trkpt>
      <trkpt lat="44.32358" lon="6.33887">
        <ele>1491.14</ele>
        <time>2022-04-16T09:13:21Z</time>
      </trkpt>
      <trkpt lat="44.32347" lon="6.3389">
        <ele>1492.1</ele>
        <time>2022-04-16T09:13:30Z</time>
      </trkpt>
      <trkpt lat="44.32318" lon="6.33899">
        <ele>1494.51</ele>
        <time>2022-04-16T09:13:50Z</time>
      </trkpt>
      <trkpt lat="44.32296" lon="6.33904">
        <ele>1492.58</ele>
        <time>2022-04-16T09:14:07Z</time>
      </trkpt>
      <trkpt lat="44.32294" lon="6.33905">
        <ele>1492.1</ele>
        <time>2022-04-16T09:14:09Z</time>
      </trkpt>
      <trkpt lat="44.32276" lon="6.33911">
        <ele>1493.06</ele>
        <time>2022-04-16T09:14:23Z</time>
      </trkpt>
      <trkpt lat="44.32272" lon="6.33916">
        <ele>1493.06</ele>
        <time>2022-04-16T09:14:27Z</time>
      </trkpt>
      <trkpt lat="44.32265" lon="6.33941">
        <ele>1491.62</ele>
        <time>2022-04-16T09:14:40Z</time>
      </trkpt>
      <trkpt lat="44.32261" lon="6.33956">
        <ele>1489.7</ele>
        <time>2022-04-16T09:14:49Z</time>
      </trkpt>
      <trkpt lat="44.32261" lon="6.33964">
        <ele>1489.22</ele>
        <time>2022-04-16T09:14:53Z</time>
      </trkpt>
      <trkpt lat="44.32259" lon="6.33976">
        <ele>1488.74</ele>
        <time>2022-04-16T09:15:06Z</time>
      </trkpt>
      <trkpt lat="44.32256" lon="6.33988">
        <ele>1487.3</ele>
        <time>2022-04-16T09:15:15Z</time>
      </trkpt>
      <trkpt lat="44.32254" lon="6.34001">
        <ele>1489.7</ele>
        <time>2022-04-16T09:15:27Z</time>
      </trkpt>
      <trkpt lat="44.32255" lon="6.34007">
        <ele>1490.66</ele>
        <time>2022-04-16T09:15:30Z</time>
      </trkpt>
      <trkpt lat="44.32256" lon="6.34039">
        <ele>1490.66</ele>
        <time>2022-04-16T09:15:47Z</time>
      </trkpt>
      <trkpt lat="44.32255" lon="6.34046">
        <ele>1490.18</ele>
        <time>2022-04-16T09:15:51Z</time>
      </trkpt>
      <trkpt lat="44.32251" lon="6.34066">
        <ele>1490.66</ele>
        <time>2022-04-16T09:16:05Z</time>
      </trkpt>
      <trkpt lat="44.32236" lon="6.34085">
        <ele>1491.14</ele>
        <time>2022-04-16T09:16:22Z</time>
      </trkpt>
      <trkpt lat="44.32221" lon="6.34103">
        <ele>1493.55</ele>
        <time>2022-04-16T09:16:38Z</time>
      </trkpt>
      <trkpt lat="44.32205" lon="6.34125">
        <ele>1495.47</ele>
        <time>2022-04-16T09:16:55Z</time>
      </trkpt>
      <trkpt lat="44.32189" lon="6.34147">
        <ele>1496.91</ele>
        <time>2022-04-16T09:17:13Z</time>
      </trkpt>
      <trkpt lat="44.32173" lon="6.34159">
        <ele>1498.83</ele>
        <time>2022-04-16T09:17:28Z</time>
      </trkpt>
      <trkpt lat="44.32159" lon="6.34173">
        <ele>1503.64</ele>
        <time>2022-04-16T09:17:44Z</time>
      </trkpt>
      <trkpt lat="44.32157" lon="6.34175">
        <ele>1504.6</ele>
        <time>2022-04-16T09:17:47Z</time>
      </trkpt>
      <trkpt lat="44.3215" lon="6.34177">
        <ele>1507.97</ele>
        <time>2022-04-16T09:17:54Z</time>
      </trkpt>
      <trkpt lat="44.32138" lon="6.34185">
        <ele>1509.41</ele>
        <time>2022-04-16T09:18:02Z</time>
      </trkpt>
      <trkpt lat="44.32136" lon="6.3419">
        <ele>1509.41</ele>
        <time>2022-04-16T09:18:05Z</time>
      </trkpt>
      <trkpt lat="44.32128" lon="6.34215">
        <ele>1507</ele>
        <time>2022-04-16T09:18:20Z</time>
      </trkpt>
      <trkpt lat="44.32119" lon="6.3424">
        <ele>1505.56</ele>
        <time>2022-04-16T09:18:36Z</time>
      </trkpt>
      <trkpt lat="44.32106" lon="6.34256">
        <ele>1505.08</ele>
        <time>2022-04-16T09:18:51Z</time>
      </trkpt>
      <trkpt lat="44.32094" lon="6.3427">
        <ele>1504.6</ele>
        <time>2022-04-16T09:19:05Z</time>
      </trkpt>
      <trkpt lat="44.32075" lon="6.34285">
        <ele>1506.04</ele>
        <time>2022-04-16T09:19:22Z</time>
      </trkpt>
      <trkpt lat="44.32056" lon="6.34295">
        <ele>1508.45</ele>
        <time>2022-04-16T09:19:39Z</time>
      </trkpt>
      <trkpt lat="44.32031" lon="6.34293">
        <ele>1513.25</ele>
        <time>2022-04-16T09:19:58Z</time>
      </trkpt>
      <trkpt lat="44.32016" lon="6.34305">
        <ele>1517.58</ele>
        <time>2022-04-16T09:20:13Z</time>
      </trkpt>
      <trkpt lat="44.32018" lon="6.34317">
        <ele>1520.46</ele>
        <time>2022-04-16T09:20:21Z</time>
      </trkpt>
      <trkpt lat="44.32034" lon="6.34342">
        <ele>1525.75</ele>
        <time>2022-04-16T09:20:39Z</time>
      </trkpt>
      <trkpt lat="44.32054" lon="6.3436">
        <ele>1529.59</ele>
        <time>2022-04-16T09:20:57Z</time>
      </trkpt>
      <trkpt lat="44.32076" lon="6.34365">
        <ele>1531.52</ele>
        <time>2022-04-16T09:21:14Z</time>
      </trkpt>
      <trkpt lat="44.32097" lon="6.34369">
        <ele>1532.96</ele>
        <time>2022-04-16T09:21:30Z</time>
      </trkpt>
      <trkpt lat="44.3212" lon="6.34376">
        <ele>1535.36</ele>
        <time>2022-04-16T09:21:48Z</time>
      </trkpt>
      <trkpt lat="44.32122" lon="6.34377">
        <ele>1535.36</ele>
        <time>2022-04-16T09:21:50Z</time>
      </trkpt>
      <trkpt lat="44.32128" lon="6.34382">
        <ele>1536.32</ele>
        <time>2022-04-16T09:21:56Z</time>
      </trkpt>
      <trkpt lat="44.32135" lon="6.34389">
        <ele>1534.4</ele>
        <time>2022-04-16T09:22:03Z</time>
      </trkpt>
      <trkpt lat="44.32135" lon="6.34395">
        <ele>1534.4</ele>
        <time>2022-04-16T09:22:07Z</time>
      </trkpt>
      <trkpt lat="44.3212" lon="6.34401">
        <ele>1529.11</ele>
        <time>2022-04-16T09:22:25Z</time>
      </trkpt>
      <trkpt lat="44.32116" lon="6.34402">
        <ele>1529.59</ele>
        <time>2022-04-16T09:22:31Z</time>
      </trkpt>
      <trkpt lat="44.32096" lon="6.34404">
        <ele>1531.04</ele>
        <time>2022-04-16T09:22:47Z</time>
      </trkpt>
      <trkpt lat="44.32076" lon="6.34406">
        <ele>1533.92</ele>
        <time>2022-04-16T09:23:03Z</time>
      </trkpt>
      <trkpt lat="44.3206" lon="6.3441">
        <ele>1538.73</ele>
        <time>2022-04-16T09:23:19Z</time>
      </trkpt>
      <trkpt lat="44.32056" lon="6.34411">
        <ele>1540.17</ele>
        <time>2022-04-16T09:23:23Z</time>
      </trkpt>
      <trkpt lat="44.32038" lon="6.34413">
        <ele>1543.05</ele>
        <time>2022-04-16T09:23:38Z</time>
      </trkpt>
      <trkpt lat="44.32017" lon="6.34417">
        <ele>1544.01</ele>
        <time>2022-04-16T09:23:53Z</time>
      </trkpt>
      <trkpt lat="44.32002" lon="6.34419">
        <ele>1546.9</ele>
        <time>2022-04-16T09:24:08Z</time>
      </trkpt>
      <trkpt lat="44.31979" lon="6.34413">
        <ele>1546.42</ele>
        <time>2022-04-16T09:24:21Z</time>
      </trkpt>
      <trkpt lat="44.31971" lon="6.34406">
        <ele>1551.22</ele>
        <time>2022-04-16T09:24:38Z</time>
      </trkpt>
      <trkpt lat="44.31961" lon="6.34391">
        <ele>1557.95</ele>
        <time>2022-04-16T09:24:58Z</time>
      </trkpt>
      <trkpt lat="44.31941" lon="6.34366">
        <ele>1557.95</ele>
        <time>2022-04-16T09:25:15Z</time>
      </trkpt>
      <trkpt lat="44.31918" lon="6.3435">
        <ele>1552.67</ele>
        <time>2022-04-16T09:25:31Z</time>
      </trkpt>
      <trkpt lat="44.31906" lon="6.3434">
        <ele>1546.9</ele>
        <time>2022-04-16T09:25:46Z</time>
      </trkpt>
      <trkpt lat="44.31894" lon="6.34335">
        <ele>1546.9</ele>
        <time>2022-04-16T09:26:02Z</time>
      </trkpt>
      <trkpt lat="44.3188" lon="6.34334">
        <ele>1547.86</ele>
        <time>2022-04-16T09:26:18Z</time>
      </trkpt>
      <trkpt lat="44.3188" lon="6.34331">
        <ele>1550.26</ele>
        <time>2022-04-16T09:26:49Z</time>
      </trkpt>
      <trkpt lat="44.31873" lon="6.3433">
        <ele>1548.82</ele>
        <time>2022-04-16T09:27:27Z</time>
      </trkpt>
      <trkpt lat="44.31868" lon="6.34333">
        <ele>1548.82</ele>
        <time>2022-04-16T09:27:48Z</time>
      </trkpt>
      <trkpt lat="44.31859" lon="6.34336">
        <ele>1549.78</ele>
        <time>2022-04-16T09:27:57Z</time>
      </trkpt>
      <trkpt lat="44.3184" lon="6.34338">
        <ele>1551.71</ele>
        <time>2022-04-16T09:28:13Z</time>
      </trkpt>
      <trkpt lat="44.3183" lon="6.34341">
        <ele>1552.67</ele>
        <time>2022-04-16T09:28:20Z</time>
      </trkpt>
      <trkpt lat="44.31819" lon="6.34346">
        <ele>1552.19</ele>
        <time>2022-04-16T09:28:28Z</time>
      </trkpt>
      <trkpt lat="44.31798" lon="6.34364">
        <ele>1550.26</ele>
        <time>2022-04-16T09:28:46Z</time>
      </trkpt>
      <trkpt lat="44.31783" lon="6.34375">
        <ele>1549.78</ele>
        <time>2022-04-16T09:28:58Z</time>
      </trkpt>
      <trkpt lat="44.31765" lon="6.34385">
        <ele>1550.74</ele>
        <time>2022-04-16T09:29:12Z</time>
      </trkpt>
      <trkpt lat="44.31763" lon="6.34387">
        <ele>1550.74</ele>
        <time>2022-04-16T09:29:14Z</time>
      </trkpt>
      <trkpt lat="44.31749" lon="6.34399">
        <ele>1552.67</ele>
        <time>2022-04-16T09:29:28Z</time>
      </trkpt>
      <trkpt lat="44.31735" lon="6.34416">
        <ele>1552.67</ele>
        <time>2022-04-16T09:29:41Z</time>
      </trkpt>
      <trkpt lat="44.31726" lon="6.34431">
        <ele>1556.99</ele>
        <time>2022-04-16T09:29:57Z</time>
      </trkpt>
      <trkpt lat="44.31713" lon="6.34455">
        <ele>1560.36</ele>
        <time>2022-04-16T09:30:16Z</time>
      </trkpt>
      <trkpt lat="44.31709" lon="6.34469">
        <ele>1567.09</ele>
        <time>2022-04-16T09:30:34Z</time>
      </trkpt>
      <trkpt lat="44.31703" lon="6.34474">
        <ele>1568.53</ele>
        <time>2022-04-16T09:30:38Z</time>
      </trkpt>
      <trkpt lat="44.31687" lon="6.34499">
        <ele>1569.01</ele>
        <time>2022-04-16T09:30:54Z</time>
      </trkpt>
      <trkpt lat="44.3168" lon="6.34522">
        <ele>1571.89</ele>
        <time>2022-04-16T09:31:10Z</time>
      </trkpt>
      <trkpt lat="44.31678" lon="6.34529">
        <ele>1573.33</ele>
        <time>2022-04-16T09:31:15Z</time>
      </trkpt>
      <trkpt lat="44.3167" lon="6.34553">
        <ele>1578.62</ele>
        <time>2022-04-16T09:31:33Z</time>
      </trkpt>
      <trkpt lat="44.31667" lon="6.34561">
        <ele>1579.1</ele>
        <time>2022-04-16T09:31:39Z</time>
      </trkpt>
      <trkpt lat="44.31649" lon="6.34578">
        <ele>1574.3</ele>
        <time>2022-04-16T09:31:55Z</time>
      </trkpt>
      <trkpt lat="44.31631" lon="6.34588">
        <ele>1575.26</ele>
        <time>2022-04-16T09:32:10Z</time>
      </trkpt>
      <trkpt lat="44.31619" lon="6.34596">
        <ele>1575.26</ele>
        <time>2022-04-16T09:32:21Z</time>
      </trkpt>
      <trkpt lat="44.3161" lon="6.34612">
        <ele>1574.78</ele>
        <time>2022-04-16T09:32:37Z</time>
      </trkpt>
      <trkpt lat="44.31609" lon="6.34616">
        <ele>1574.3</ele>
        <time>2022-04-16T09:32:40Z</time>
      </trkpt>
      <trkpt lat="44.31616" lon="6.34633">
        <ele>1576.22</ele>
        <time>2022-04-16T09:32:54Z</time>
      </trkpt>
      <trkpt lat="44.31631" lon="6.34641">
        <ele>1585.35</ele>
        <time>2022-04-16T09:33:09Z</time>
      </trkpt>
      <trkpt lat="44.31638" lon="6.34644">
        <ele>1588.24</ele>
        <time>2022-04-16T09:33:16Z</time>
      </trkpt>
      <trkpt lat="44.31649" lon="6.34659">
        <ele>1589.68</ele>
        <time>2022-04-16T09:33:32Z</time>
      </trkpt>
      <trkpt lat="44.31654" lon="6.3466">
        <ele>1591.6</ele>
        <time>2022-04-16T09:33:47Z</time>
      </trkpt>
      <trkpt lat="44.31655" lon="6.3466">
        <ele>1591.6</ele>
        <time>2022-04-16T09:34:06Z</time>
      </trkpt>
      <trkpt lat="44.31658" lon="6.3466">
        <ele>1593.04</ele>
        <time>2022-04-16T09:34:10Z</time>
      </trkpt>
      <trkpt lat="44.31679" lon="6.34651">
        <ele>1595.93</ele>
        <time>2022-04-16T09:34:26Z</time>
      </trkpt>
      <trkpt lat="44.31699" lon="6.34638">
        <ele>1597.85</ele>
        <time>2022-04-16T09:34:43Z</time>
      </trkpt>
      <trkpt lat="44.31717" lon="6.3462">
        <ele>1607.94</ele>
        <time>2022-04-16T09:35:01Z</time>
      </trkpt>
      <trkpt lat="44.3174" lon="6.34607">
        <ele>1608.9</ele>
        <time>2022-04-16T09:35:17Z</time>
      </trkpt>
      <trkpt lat="44.31753" lon="6.34595">
        <ele>1617.07</ele>
        <time>2022-04-16T09:35:32Z</time>
      </trkpt>
      <trkpt lat="44.31775" lon="6.34583">
        <ele>1620.44</ele>
        <time>2022-04-16T09:35:50Z</time>
      </trkpt>
      <trkpt lat="44.31781" lon="6.34577">
        <ele>1621.88</ele>
        <time>2022-04-16T09:35:56Z</time>
      </trkpt>
      <trkpt lat="44.31793" lon="6.34551">
        <ele>1622.36</ele>
        <time>2022-04-16T09:36:13Z</time>
      </trkpt>
      <trkpt lat="44.31798" lon="6.34531">
        <ele>1625.25</ele>
        <time>2022-04-16T09:36:27Z</time>
      </trkpt>
      <trkpt lat="44.31801" lon="6.34511">
        <ele>1618.52</ele>
        <time>2022-04-16T09:36:35Z</time>
      </trkpt>
      <trkpt lat="44.3181" lon="6.34491">
        <ele>1615.15</ele>
        <time>2022-04-16T09:36:51Z</time>
      </trkpt>
      <trkpt lat="44.31821" lon="6.34464">
        <ele>1614.67</ele>
        <time>2022-04-16T09:37:11Z</time>
      </trkpt>
      <trkpt lat="44.31836" lon="6.34436">
        <ele>1610.83</ele>
        <time>2022-04-16T09:37:29Z</time>
      </trkpt>
      <trkpt lat="44.31857" lon="6.34413">
        <ele>1605.06</ele>
        <time>2022-04-16T09:37:50Z</time>
      </trkpt>
      <trkpt lat="44.31872" lon="6.34396">
        <ele>1609.38</ele>
        <time>2022-04-16T09:38:08Z</time>
      </trkpt>
      <trkpt lat="44.31889" lon="6.34385">
        <ele>1612.75</ele>
        <time>2022-04-16T09:38:25Z</time>
      </trkpt>
      <trkpt lat="44.31918" lon="6.34384">
        <ele>1590.64</ele>
        <time>2022-04-16T09:38:45Z</time>
      </trkpt>
      <trkpt lat="44.31921" lon="6.34384">
        <ele>1589.68</ele>
        <time>2022-04-16T09:39:06Z</time>
      </trkpt>
      <trkpt lat="44.31926" lon="6.34389">
        <ele>1590.64</ele>
        <time>2022-04-16T09:39:22Z</time>
      </trkpt>
      <trkpt lat="44.31943" lon="6.34395">
        <ele>1582.47</ele>
        <time>2022-04-16T09:39:36Z</time>
      </trkpt>
      <trkpt lat="44.31956" lon="6.34414">
        <ele>1574.78</ele>
        <time>2022-04-16T09:39:54Z</time>
      </trkpt>
      <trkpt lat="44.31961" lon="6.3442">
        <ele>1575.26</ele>
        <time>2022-04-16T09:39:59Z</time>
      </trkpt>
      <trkpt lat="44.3198" lon="6.34428">
        <ele>1569.01</ele>
        <time>2022-04-16T09:40:13Z</time>
      </trkpt>
      <trkpt lat="44.32" lon="6.34433">
        <ele>1564.2</ele>
        <time>2022-04-16T09:40:29Z</time>
      </trkpt>
      <trkpt lat="44.3202" lon="6.34429">
        <ele>1566.61</ele>
        <time>2022-04-16T09:40:47Z</time>
      </trkpt>
      <trkpt lat="44.32043" lon="6.34422">
        <ele>1567.57</ele>
        <time>2022-04-16T09:41:04Z</time>
      </trkpt>
      <trkpt lat="44.32063" lon="6.34416">
        <ele>1558.92</ele>
        <time>2022-04-16T09:41:18Z</time>
      </trkpt>
      <trkpt lat="44.32083" lon="6.34414">
        <ele>1554.11</ele>
        <time>2022-04-16T09:41:35Z</time>
      </trkpt>
      <trkpt lat="44.32097" lon="6.34412">
        <ele>1552.19</ele>
        <time>2022-04-16T09:41:46Z</time>
      </trkpt>
      <trkpt lat="44.32108" lon="6.34411">
        <ele>1552.67</ele>
        <time>2022-04-16T09:41:55Z</time>
      </trkpt>
      <trkpt lat="44.32127" lon="6.34405">
        <ele>1545.94</ele>
        <time>2022-04-16T09:42:07Z</time>
      </trkpt>
      <trkpt lat="44.32134" lon="6.34389">
        <ele>1541.61</ele>
        <time>2022-04-16T09:42:17Z</time>
      </trkpt>
      <trkpt lat="44.32123" lon="6.3437">
        <ele>1532.96</ele>
        <time>2022-04-16T09:42:32Z</time>
      </trkpt>
      <trkpt lat="44.32104" lon="6.34362">
        <ele>1526.71</ele>
        <time>2022-04-16T09:42:48Z</time>
      </trkpt>
      <trkpt lat="44.32082" lon="6.34358">
        <ele>1522.87</ele>
        <time>2022-04-16T09:43:04Z</time>
      </trkpt>
      <trkpt lat="44.32062" lon="6.34354">
        <ele>1519.02</ele>
        <time>2022-04-16T09:43:20Z</time>
      </trkpt>
      <trkpt lat="44.32042" lon="6.34339">
        <ele>1516.62</ele>
        <time>2022-04-16T09:43:38Z</time>
      </trkpt>
      <trkpt lat="44.32028" lon="6.34323">
        <ele>1513.73</ele>
        <time>2022-04-16T09:43:53Z</time>
      </trkpt>
      <trkpt lat="44.32025" lon="6.34306">
        <ele>1514.21</ele>
        <time>2022-04-16T09:44:04Z</time>
      </trkpt>
      <trkpt lat="44.32031" lon="6.34304">
        <ele>1515.18</ele>
        <time>2022-04-16T09:44:14Z</time>
      </trkpt>
      <trkpt lat="44.32048" lon="6.34308">
        <ele>1516.14</ele>
        <time>2022-04-16T09:44:31Z</time>
      </trkpt>
      <trkpt lat="44.32064" lon="6.34306">
        <ele>1516.62</ele>
        <time>2022-04-16T09:44:45Z</time>
      </trkpt>
      <trkpt lat="44.32086" lon="6.34289">
        <ele>1513.73</ele>
        <time>2022-04-16T09:45:01Z</time>
      </trkpt>
      <trkpt lat="44.32088" lon="6.34288">
        <ele>1512.77</ele>
        <time>2022-04-16T09:45:02Z</time>
      </trkpt>
      <trkpt lat="44.32104" lon="6.3427">
        <ele>1505.56</ele>
        <time>2022-04-16T09:45:14Z</time>
      </trkpt>
      <trkpt lat="44.3212" lon="6.34248">
        <ele>1500.27</ele>
        <time>2022-04-16T09:45:30Z</time>
      </trkpt>
      <trkpt lat="44.32131" lon="6.34216">
        <ele>1497.87</ele>
        <time>2022-04-16T09:45:49Z</time>
      </trkpt>
      <trkpt lat="44.32141" lon="6.34196">
        <ele>1496.91</ele>
        <time>2022-04-16T09:46:05Z</time>
      </trkpt>
      <trkpt lat="44.32147" lon="6.34192">
        <ele>1499.79</ele>
        <time>2022-04-16T09:46:16Z</time>
      </trkpt>
      <trkpt lat="44.32161" lon="6.34189">
        <ele>1502.2</ele>
        <time>2022-04-16T09:46:32Z</time>
      </trkpt>
      <trkpt lat="44.32164" lon="6.34186">
        <ele>1502.2</ele>
        <time>2022-04-16T09:46:35Z</time>
      </trkpt>
      <trkpt lat="44.32184" lon="6.34173">
        <ele>1503.64</ele>
        <time>2022-04-16T09:46:51Z</time>
      </trkpt>
      <trkpt lat="44.32202" lon="6.34153">
        <ele>1505.08</ele>
        <time>2022-04-16T09:47:07Z</time>
      </trkpt>
      <trkpt lat="44.32218" lon="6.34136">
        <ele>1506.04</ele>
        <time>2022-04-16T09:47:23Z</time>
      </trkpt>
      <trkpt lat="44.32222" lon="6.3413">
        <ele>1506.52</ele>
        <time>2022-04-16T09:47:27Z</time>
      </trkpt>
      <trkpt lat="44.32237" lon="6.34109">
        <ele>1510.85</ele>
        <time>2022-04-16T09:47:43Z</time>
      </trkpt>
      <trkpt lat="44.32252" lon="6.34078">
        <ele>1504.6</ele>
        <time>2022-04-16T09:47:58Z</time>
      </trkpt>
      <trkpt lat="44.32255" lon="6.34059">
        <ele>1501.72</ele>
        <time>2022-04-16T09:48:07Z</time>
      </trkpt>
      <trkpt lat="44.32255" lon="6.34032">
        <ele>1499.31</ele>
        <time>2022-04-16T09:48:21Z</time>
      </trkpt>
      <trkpt lat="44.32254" lon="6.3403">
        <ele>1499.79</ele>
        <time>2022-04-16T09:48:22Z</time>
      </trkpt>
      <trkpt lat="44.32249" lon="6.34009">
        <ele>1504.6</ele>
        <time>2022-04-16T09:48:37Z</time>
      </trkpt>
      <trkpt lat="44.32255" lon="6.34001">
        <ele>1504.12</ele>
        <time>2022-04-16T09:48:44Z</time>
      </trkpt>
      <trkpt lat="44.32262" lon="6.33988">
        <ele>1501.24</ele>
        <time>2022-04-16T09:48:51Z</time>
      </trkpt>
      <trkpt lat="44.32268" lon="6.33959">
        <ele>1497.39</ele>
        <time>2022-04-16T09:49:06Z</time>
      </trkpt>
      <trkpt lat="44.32278" lon="6.3393">
        <ele>1492.1</ele>
        <time>2022-04-16T09:49:22Z</time>
      </trkpt>
      <trkpt lat="44.32288" lon="6.33923">
        <ele>1490.66</ele>
        <time>2022-04-16T09:49:37Z</time>
      </trkpt>
      <trkpt lat="44.32303" lon="6.33916">
        <ele>1494.03</ele>
        <time>2022-04-16T09:49:54Z</time>
      </trkpt>
      <trkpt lat="44.32321" lon="6.33916">
        <ele>1500.27</ele>
        <time>2022-04-16T09:50:10Z</time>
      </trkpt>
      <trkpt lat="44.32338" lon="6.33914">
        <ele>1505.56</ele>
        <time>2022-04-16T09:50:27Z</time>
      </trkpt>
      <trkpt lat="44.32341" lon="6.33912">
        <ele>1506.52</ele>
        <time>2022-04-16T09:50:30Z</time>
      </trkpt>
      <trkpt lat="44.3236" lon="6.33897">
        <ele>1508.93</ele>
        <time>2022-04-16T09:50:46Z</time>
      </trkpt>
      <trkpt lat="44.32378" lon="6.33888">
        <ele>1518.54</ele>
        <time>2022-04-16T09:51:04Z</time>
      </trkpt>
      <trkpt lat="44.32398" lon="6.33878">
        <ele>1519.98</ele>
        <time>2022-04-16T09:51:18Z</time>
      </trkpt>
      <trkpt lat="44.32418" lon="6.33873">
        <ele>1520.94</ele>
        <time>2022-04-16T09:51:34Z</time>
      </trkpt>
      <trkpt lat="44.32437" lon="6.33868">
        <ele>1519.98</ele>
        <time>2022-04-16T09:51:48Z</time>
      </trkpt>
      <trkpt lat="44.32454" lon="6.33859">
        <ele>1522.87</ele>
        <time>2022-04-16T09:52:03Z</time>
      </trkpt>
      <trkpt lat="44.32477" lon="6.33838">
        <ele>1516.62</ele>
        <time>2022-04-16T09:52:22Z</time>
      </trkpt>
      <trkpt lat="44.32483" lon="6.33836">
        <ele>1514.69</ele>
        <time>2022-04-16T09:52:26Z</time>
      </trkpt>
      <trkpt lat="44.32508" lon="6.33822">
        <ele>1509.41</ele>
        <time>2022-04-16T09:52:44Z</time>
      </trkpt>
      <trkpt lat="44.32533" lon="6.33805">
        <ele>1507.97</ele>
        <time>2022-04-16T09:53:04Z</time>
      </trkpt>
      <trkpt lat="44.32552" lon="6.33786">
        <ele>1512.77</ele>
        <time>2022-04-16T09:53:23Z</time>
      </trkpt>
      <trkpt lat="44.32569" lon="6.33772">
        <ele>1510.37</ele>
        <time>2022-04-16T09:53:37Z</time>
      </trkpt>
      <trkpt lat="44.32581" lon="6.3377">
        <ele>1512.77</ele>
        <time>2022-04-16T09:53:46Z</time>
      </trkpt>
      <trkpt lat="44.32584" lon="6.33769">
        <ele>1513.25</ele>
        <time>2022-04-16T09:53:48Z</time>
      </trkpt>
      <trkpt lat="44.32606" lon="6.33768">
        <ele>1517.1</ele>
        <time>2022-04-16T09:54:05Z</time>
      </trkpt>
      <trkpt lat="44.32624" lon="6.33773">
        <ele>1522.39</ele>
        <time>2022-04-16T09:54:20Z</time>
      </trkpt>
      <trkpt lat="44.32638" lon="6.33772">
        <ele>1521.42</ele>
        <time>2022-04-16T09:54:31Z</time>
      </trkpt>
      <trkpt lat="44.32665" lon="6.33773">
        <ele>1515.66</ele>
        <time>2022-04-16T09:54:49Z</time>
      </trkpt>
      <trkpt lat="44.32678" lon="6.33774">
        <ele>1514.69</ele>
        <time>2022-04-16T09:54:59Z</time>
      </trkpt>
      <trkpt lat="44.32683" lon="6.33772">
        <ele>1515.66</ele>
        <time>2022-04-16T09:55:04Z</time>
      </trkpt>
      <trkpt lat="44.32695" lon="6.33766">
        <ele>1518.06</ele>
        <time>2022-04-16T09:55:14Z</time>
      </trkpt>
      <trkpt lat="44.32698" lon="6.33766">
        <ele>1519.02</ele>
        <time>2022-04-16T09:55:17Z</time>
      </trkpt>
      <trkpt lat="44.32707" lon="6.33745">
        <ele>1514.21</ele>
        <time>2022-04-16T09:55:32Z</time>
      </trkpt>
      <trkpt lat="44.32719" lon="6.33722">
        <ele>1514.21</ele>
        <time>2022-04-16T09:55:48Z</time>
      </trkpt>
      <trkpt lat="44.32734" lon="6.337">
        <ele>1514.21</ele>
        <time>2022-04-16T09:56:05Z</time>
      </trkpt>
      <trkpt lat="44.32748" lon="6.33671">
        <ele>1512.29</ele>
        <time>2022-04-16T09:56:22Z</time>
      </trkpt>
      <trkpt lat="44.32769" lon="6.33639">
        <ele>1497.39</ele>
        <time>2022-04-16T09:56:37Z</time>
      </trkpt>
      <trkpt lat="44.32786" lon="6.33619">
        <ele>1489.22</ele>
        <time>2022-04-16T09:56:53Z</time>
      </trkpt>
      <trkpt lat="44.32794" lon="6.33595">
        <ele>1490.66</ele>
        <time>2022-04-16T09:57:08Z</time>
      </trkpt>
      <trkpt lat="44.32803" lon="6.33567">
        <ele>1491.62</ele>
        <time>2022-04-16T09:57:24Z</time>
      </trkpt>
      <trkpt lat="44.32804" lon="6.33562">
        <ele>1492.1</ele>
        <time>2022-04-16T09:57:27Z</time>
      </trkpt>
      <trkpt lat="44.32807" lon="6.33553">
        <ele>1492.58</ele>
        <time>2022-04-16T09:57:32Z</time>
      </trkpt>
      <trkpt lat="44.32809" lon="6.33546">
        <ele>1493.06</ele>
        <time>2022-04-16T09:57:36Z</time>
      </trkpt>
      <trkpt lat="44.32811" lon="6.33537">
        <ele>1494.03</ele>
        <time>2022-04-16T09:57:41Z</time>
      </trkpt>
      <trkpt lat="44.32811" lon="6.33521">
        <ele>1494.99</ele>
        <time>2022-04-16T09:57:50Z</time>
      </trkpt>
      <trkpt lat="44.3281" lon="6.3351">
        <ele>1495.95</ele>
        <time>2022-04-16T09:57:57Z</time>
      </trkpt>
      <trkpt lat="44.32811" lon="6.33505">
        <ele>1496.91</ele>
        <time>2022-04-16T09:58:00Z</time>
      </trkpt>
      <trkpt lat="44.32812" lon="6.33498">
        <ele>1498.35</ele>
        <time>2022-04-16T09:58:04Z</time>
      </trkpt>
      <trkpt lat="44.32805" lon="6.33471">
        <ele>1502.68</ele>
        <time>2022-04-16T09:58:18Z</time>
      </trkpt>
      <trkpt lat="44.328" lon="6.33455">
        <ele>1505.56</ele>
        <time>2022-04-16T09:58:27Z</time>
      </trkpt>
      <trkpt lat="44.32821" lon="6.33433">
        <ele>1504.12</ele>
        <time>2022-04-16T09:58:43Z</time>
      </trkpt>
      <trkpt lat="44.32823" lon="6.33432">
        <ele>1504.6</ele>
        <time>2022-04-16T09:58:46Z</time>
      </trkpt>
      <trkpt lat="44.32837" lon="6.33437">
        <ele>1509.41</ele>
        <time>2022-04-16T09:59:03Z</time>
      </trkpt>
      <trkpt lat="44.32857" lon="6.33421">
        <ele>1509.41</ele>
        <time>2022-04-16T09:59:19Z</time>
      </trkpt>
      <trkpt lat="44.32864" lon="6.33409">
        <ele>1504.6</ele>
        <time>2022-04-16T09:59:23Z</time>
      </trkpt>
      <trkpt lat="44.32864" lon="6.33397">
        <ele>1502.2</ele>
        <time>2022-04-16T09:59:29Z</time>
      </trkpt>
      <trkpt lat="44.32862" lon="6.33387">
        <ele>1498.83</ele>
        <time>2022-04-16T09:59:35Z</time>
      </trkpt>
      <trkpt lat="44.32861" lon="6.33365">
        <ele>1494.03</ele>
        <time>2022-04-16T09:59:48Z</time>
      </trkpt>
      <trkpt lat="44.32858" lon="6.33334">
        <ele>1491.14</ele>
        <time>2022-04-16T10:00:06Z</time>
      </trkpt>
      <trkpt lat="44.32857" lon="6.33315">
        <ele>1489.7</ele>
        <time>2022-04-16T10:00:20Z</time>
      </trkpt>
      <trkpt lat="44.32858" lon="6.33299">
        <ele>1486.34</ele>
        <time>2022-04-16T10:00:31Z</time>
      </trkpt>
      <trkpt lat="44.32863" lon="6.33286">
        <ele>1484.89</ele>
        <time>2022-04-16T10:00:40Z</time>
      </trkpt>
      <trkpt lat="44.32863" lon="6.33276">
        <ele>1483.45</ele>
        <time>2022-04-16T10:00:46Z</time>
      </trkpt>
      <trkpt lat="44.32852" lon="6.33252">
        <ele>1484.41</ele>
        <time>2022-04-16T10:01:02Z</time>
      </trkpt>
      <trkpt lat="44.32852" lon="6.33249">
        <ele>1483.93</ele>
        <time>2022-04-16T10:01:05Z</time>
      </trkpt>
      <trkpt lat="44.32857" lon="6.33236">
        <ele>1484.41</ele>
        <time>2022-04-16T10:01:13Z</time>
      </trkpt>
      <trkpt lat="44.3287" lon="6.33214">
        <ele>1482.01</ele>
        <time>2022-04-16T10:01:29Z</time>
      </trkpt>
      <trkpt lat="44.32881" lon="6.33189">
        <ele>1478.16</ele>
        <time>2022-04-16T10:01:46Z</time>
      </trkpt>
      <trkpt lat="44.32881" lon="6.33187">
        <ele>1477.2</ele>
        <time>2022-04-16T10:02:05Z</time>
      </trkpt>
      <trkpt lat="44.32887" lon="6.33179">
        <ele>1477.2</ele>
        <time>2022-04-16T10:02:14Z</time>
      </trkpt>
      <trkpt lat="44.32904" lon="6.33166">
        <ele>1477.2</ele>
        <time>2022-04-16T10:02:29Z</time>
      </trkpt>
      <trkpt lat="44.32914" lon="6.33141">
        <ele>1475.76</ele>
        <time>2022-04-16T10:02:44Z</time>
      </trkpt>
      <trkpt lat="44.32915" lon="6.33123">
        <ele>1474.32</ele>
        <time>2022-04-16T10:02:56Z</time>
      </trkpt>
      <trkpt lat="44.32917" lon="6.33113">
        <ele>1474.8</ele>
        <time>2022-04-16T10:03:04Z</time>
      </trkpt>
      <trkpt lat="44.32924" lon="6.33105">
        <ele>1478.16</ele>
        <time>2022-04-16T10:03:15Z</time>
      </trkpt>
      <trkpt lat="44.32941" lon="6.33089">
        <ele>1478.16</ele>
        <time>2022-04-16T10:03:29Z</time>
      </trkpt>
      <trkpt lat="44.32939" lon="6.33063">
        <ele>1474.32</ele>
        <time>2022-04-16T10:03:44Z</time>
      </trkpt>
      <trkpt lat="44.32939" lon="6.33052">
        <ele>1474.32</ele>
        <time>2022-04-16T10:03:51Z</time>
      </trkpt>
      <trkpt lat="44.32944" lon="6.33036">
        <ele>1474.32</ele>
        <time>2022-04-16T10:03:59Z</time>
      </trkpt>
      <trkpt lat="44.32948" lon="6.33016">
        <ele>1473.36</ele>
        <time>2022-04-16T10:04:11Z</time>
      </trkpt>
      <trkpt lat="44.32946" lon="6.33001">
        <ele>1471.92</ele>
        <time>2022-04-16T10:04:19Z</time>
      </trkpt>
      <trkpt lat="44.32945" lon="6.32992">
        <ele>1471.44</ele>
        <time>2022-04-16T10:04:24Z</time>
      </trkpt>
      <trkpt lat="44.32938" lon="6.32969">
        <ele>1471.44</ele>
        <time>2022-04-16T10:04:39Z</time>
      </trkpt>
      <trkpt lat="44.32927" lon="6.32943">
        <ele>1473.84</ele>
        <time>2022-04-16T10:04:54Z</time>
      </trkpt>
      <trkpt lat="44.32922" lon="6.3293">
        <ele>1475.76</ele>
        <time>2022-04-16T10:05:02Z</time>
      </trkpt>
      <trkpt lat="44.32919" lon="6.32922">
        <ele>1478.16</ele>
        <time>2022-04-16T10:05:08Z</time>
      </trkpt>
      <trkpt lat="44.3292" lon="6.32913">
        <ele>1480.09</ele>
        <time>2022-04-16T10:05:13Z</time>
      </trkpt>
      <trkpt lat="44.32935" lon="6.32895">
        <ele>1479.13</ele>
        <time>2022-04-16T10:05:22Z</time>
      </trkpt>
      <trkpt lat="44.32941" lon="6.32883">
        <ele>1479.61</ele>
        <time>2022-04-16T10:05:29Z</time>
      </trkpt>
      <trkpt lat="44.32943" lon="6.3287">
        <ele>1477.68</ele>
        <time>2022-04-16T10:05:36Z</time>
      </trkpt>
      <trkpt lat="44.32943" lon="6.32867">
        <ele>1477.2</ele>
        <time>2022-04-16T10:05:38Z</time>
      </trkpt>
      <trkpt lat="44.32942" lon="6.32851">
        <ele>1473.84</ele>
        <time>2022-04-16T10:05:54Z</time>
      </trkpt>
      <trkpt lat="44.32939" lon="6.32847">
        <ele>1471.92</ele>
        <time>2022-04-16T10:06:16Z</time>
      </trkpt>
      <trkpt lat="44.32932" lon="6.32837">
        <ele>1470.95</ele>
        <time>2022-04-16T10:06:32Z</time>
      </trkpt>
      <trkpt lat="44.32925" lon="6.32828">
        <ele>1469.51</ele>
        <time>2022-04-16T10:06:56Z</time>
      </trkpt>
      <trkpt lat="44.32907" lon="6.32821">
        <ele>1466.15</ele>
        <time>2022-04-16T10:07:13Z</time>
      </trkpt>
      <trkpt lat="44.32887" lon="6.32815">
        <ele>1463.26</ele>
        <time>2022-04-16T10:07:29Z</time>
      </trkpt>
      <trkpt lat="44.32874" lon="6.32805">
        <ele>1461.34</ele>
        <time>2022-04-16T10:07:40Z</time>
      </trkpt>
      <trkpt lat="44.3287" lon="6.32792">
        <ele>1460.86</ele>
        <time>2022-04-16T10:07:48Z</time>
      </trkpt>
      <trkpt lat="44.32859" lon="6.32766">
        <ele>1460.38</ele>
        <time>2022-04-16T10:08:05Z</time>
      </trkpt>
      <trkpt lat="44.32846" lon="6.32741">
        <ele>1458.46</ele>
        <time>2022-04-16T10:08:23Z</time>
      </trkpt>
      <trkpt lat="44.32841" lon="6.32738">
        <ele>1457.98</ele>
        <time>2022-04-16T10:08:27Z</time>
      </trkpt>
      <trkpt lat="44.32822" lon="6.32737">
        <ele>1458.94</ele>
        <time>2022-04-16T10:08:44Z</time>
      </trkpt>
      <trkpt lat="44.32817" lon="6.32736">
        <ele>1459.42</ele>
        <time>2022-04-16T10:08:47Z</time>
      </trkpt>
      <trkpt lat="44.32811" lon="6.32739">
        <ele>1461.34</ele>
        <time>2022-04-16T10:08:59Z</time>
      </trkpt>
      <trkpt lat="44.32812" lon="6.32741">
        <ele>1462.3</ele>
        <time>2022-04-16T10:09:11Z</time>
      </trkpt>
      <trkpt lat="44.32812" lon="6.32741">
        <ele>1462.3</ele>
        <time>2022-04-16T10:09:35Z</time>
      </trkpt>
      <trkpt lat="44.32794" lon="6.32738">
        <ele>1462.3</ele>
        <time>2022-04-16T10:10:44Z</time>
      </trkpt>
      <trkpt lat="44.32832" lon="6.32766">
        <ele>1462.3</ele>
        <time>2022-04-16T10:53:04Z</time>
      </trkpt>
      <trkpt lat="44.32801" lon="6.32746">
        <ele>1462.3</ele>
        <time>2022-04-16T11:23:03Z</time>
      </trkpt>
      <trkpt lat="44.32813" lon="6.32739">
        <ele>1462.78</ele>
        <time>2022-04-16T11:23:17Z</time>
      </trkpt>
      <trkpt lat="44.32817" lon="6.32737">
        <ele>1460.38</ele>
        <time>2022-04-16T11:23:32Z</time>
      </trkpt>
      <trkpt lat="44.32818" lon="6.3274">
        <ele>1456.53</ele>
        <time>2022-04-16T11:23:51Z</time>
      </trkpt>
      <trkpt lat="44.32818" lon="6.3274">
        <ele>1456.05</ele>
        <time>2022-04-16T11:24:14Z</time>
      </trkpt>
      <trkpt lat="44.3282" lon="6.32739">
        <ele>1456.05</ele>
        <time>2022-04-16T11:24:18Z</time>
      </trkpt>
      <trkpt lat="44.32827" lon="6.32737">
        <ele>1455.57</ele>
        <time>2022-04-16T11:24:25Z</time>
      </trkpt>
      <trkpt lat="44.32844" lon="6.3274">
        <ele>1457.98</ele>
        <time>2022-04-16T11:24:42Z</time>
      </trkpt>
      <trkpt lat="44.3285" lon="6.32754">
        <ele>1458.94</ele>
        <time>2022-04-16T11:24:56Z</time>
      </trkpt>
      <trkpt lat="44.32862" lon="6.32772">
        <ele>1463.26</ele>
        <time>2022-04-16T11:25:16Z</time>
      </trkpt>
      <trkpt lat="44.32864" lon="6.32775">
        <ele>1462.78</ele>
        <time>2022-04-16T11:25:19Z</time>
      </trkpt>
      <trkpt lat="44.32866" lon="6.32786">
        <ele>1461.82</ele>
        <time>2022-04-16T11:25:28Z</time>
      </trkpt>
      <trkpt lat="44.32866" lon="6.32798">
        <ele>1461.82</ele>
        <time>2022-04-16T11:25:36Z</time>
      </trkpt>
      <trkpt lat="44.32878" lon="6.32817">
        <ele>1461.34</ele>
        <time>2022-04-16T11:25:54Z</time>
      </trkpt>
      <trkpt lat="44.32883" lon="6.3282">
        <ele>1461.82</ele>
        <time>2022-04-16T11:26:00Z</time>
      </trkpt>
      <trkpt lat="44.32903" lon="6.32824">
        <ele>1462.3</ele>
        <time>2022-04-16T11:26:17Z</time>
      </trkpt>
      <trkpt lat="44.32922" lon="6.32833">
        <ele>1462.78</ele>
        <time>2022-04-16T11:26:36Z</time>
      </trkpt>
      <trkpt lat="44.32932" lon="6.32848">
        <ele>1463.74</ele>
        <time>2022-04-16T11:26:51Z</time>
      </trkpt>
      <trkpt lat="44.32937" lon="6.3287">
        <ele>1466.15</ele>
        <time>2022-04-16T11:27:08Z</time>
      </trkpt>
      <trkpt lat="44.32935" lon="6.32887">
        <ele>1469.03</ele>
        <time>2022-04-16T11:27:24Z</time>
      </trkpt>
      <trkpt lat="44.32933" lon="6.32902">
        <ele>1473.36</ele>
        <time>2022-04-16T11:27:38Z</time>
      </trkpt>
      <trkpt lat="44.32927" lon="6.32924">
        <ele>1475.76</ele>
        <time>2022-04-16T11:27:55Z</time>
      </trkpt>
      <trkpt lat="44.32931" lon="6.32949">
        <ele>1479.13</ele>
        <time>2022-04-16T11:28:12Z</time>
      </trkpt>
      <trkpt lat="44.32939" lon="6.32965">
        <ele>1477.68</ele>
        <time>2022-04-16T11:28:21Z</time>
      </trkpt>
      <trkpt lat="44.32941" lon="6.3297">
        <ele>1477.2</ele>
        <time>2022-04-16T11:28:24Z</time>
      </trkpt>
      <trkpt lat="44.32938" lon="6.32987">
        <ele>1475.28</ele>
        <time>2022-04-16T11:28:39Z</time>
      </trkpt>
      <trkpt lat="44.3294" lon="6.32995">
        <ele>1475.76</ele>
        <time>2022-04-16T11:28:46Z</time>
      </trkpt>
      <trkpt lat="44.32941" lon="6.33016">
        <ele>1477.2</ele>
        <time>2022-04-16T11:29:04Z</time>
      </trkpt>
      <trkpt lat="44.32937" lon="6.33039">
        <ele>1475.76</ele>
        <time>2022-04-16T11:29:21Z</time>
      </trkpt>
      <trkpt lat="44.3294" lon="6.3306">
        <ele>1475.76</ele>
        <time>2022-04-16T11:29:37Z</time>
      </trkpt>
      <trkpt lat="44.32941" lon="6.33065">
        <ele>1476.72</ele>
        <time>2022-04-16T11:29:42Z</time>
      </trkpt>
      <trkpt lat="44.32939" lon="6.33077">
        <ele>1479.13</ele>
        <time>2022-04-16T11:29:53Z</time>
      </trkpt>
      <trkpt lat="44.32925" lon="6.33093">
        <ele>1478.16</ele>
        <time>2022-04-16T11:30:10Z</time>
      </trkpt>
      <trkpt lat="44.32915" lon="6.33102">
        <ele>1484.89</ele>
        <time>2022-04-16T11:30:24Z</time>
      </trkpt>
      <trkpt lat="44.32916" lon="6.33117">
        <ele>1490.66</ele>
        <time>2022-04-16T11:30:41Z</time>
      </trkpt>
      <trkpt lat="44.3292" lon="6.33124">
        <ele>1494.03</ele>
        <time>2022-04-16T11:30:57Z</time>
      </trkpt>
      <trkpt lat="44.32912" lon="6.33145">
        <ele>1493.55</ele>
        <time>2022-04-16T11:31:12Z</time>
      </trkpt>
      <trkpt lat="44.32894" lon="6.33163">
        <ele>1483.45</ele>
        <time>2022-04-16T11:31:29Z</time>
      </trkpt>
      <trkpt lat="44.32889" lon="6.33165">
        <ele>1482.49</ele>
        <time>2022-04-16T11:31:34Z</time>
      </trkpt>
      <trkpt lat="44.32884" lon="6.33169">
        <ele>1482.01</ele>
        <time>2022-04-16T11:31:39Z</time>
      </trkpt>
      <trkpt lat="44.32882" lon="6.33171">
        <ele>1482.01</ele>
        <time>2022-04-16T11:31:41Z</time>
      </trkpt>
      <trkpt lat="44.32875" lon="6.33186">
        <ele>1487.78</ele>
        <time>2022-04-16T11:31:59Z</time>
      </trkpt>
      <trkpt lat="44.32865" lon="6.33204">
        <ele>1488.74</ele>
        <time>2022-04-16T11:32:13Z</time>
      </trkpt>
      <trkpt lat="44.32853" lon="6.33218">
        <ele>1488.74</ele>
        <time>2022-04-16T11:32:29Z</time>
      </trkpt>
      <trkpt lat="44.32848" lon="6.33237">
        <ele>1492.58</ele>
        <time>2022-04-16T11:32:45Z</time>
      </trkpt>
      <trkpt lat="44.32854" lon="6.33251">
        <ele>1490.66</ele>
        <time>2022-04-16T11:32:52Z</time>
      </trkpt>
      <trkpt lat="44.32862" lon="6.33271">
        <ele>1489.7</ele>
        <time>2022-04-16T11:33:09Z</time>
      </trkpt>
      <trkpt lat="44.32863" lon="6.33274">
        <ele>1489.7</ele>
        <time>2022-04-16T11:33:12Z</time>
      </trkpt>
      <trkpt lat="44.32862" lon="6.33287">
        <ele>1492.58</ele>
        <time>2022-04-16T11:33:29Z</time>
      </trkpt>
      <trkpt lat="44.32861" lon="6.33304">
        <ele>1494.51</ele>
        <time>2022-04-16T11:33:44Z</time>
      </trkpt>
      <trkpt lat="44.32857" lon="6.33322">
        <ele>1497.39</ele>
        <time>2022-04-16T11:34:00Z</time>
      </trkpt>
      <trkpt lat="44.32856" lon="6.33328">
        <ele>1496.43</ele>
        <time>2022-04-16T11:34:22Z</time>
      </trkpt>
      <trkpt lat="44.32858" lon="6.33338">
        <ele>1496.43</ele>
        <time>2022-04-16T11:34:45Z</time>
      </trkpt>
      <trkpt lat="44.32858" lon="6.33364">
        <ele>1497.87</ele>
        <time>2022-04-16T11:35:03Z</time>
      </trkpt>
      <trkpt lat="44.32856" lon="6.33378">
        <ele>1498.35</ele>
        <time>2022-04-16T11:35:12Z</time>
      </trkpt>
      <trkpt lat="44.32858" lon="6.33385">
        <ele>1497.87</ele>
        <time>2022-04-16T11:35:16Z</time>
      </trkpt>
      <trkpt lat="44.32857" lon="6.33413">
        <ele>1494.03</ele>
        <time>2022-04-16T11:35:34Z</time>
      </trkpt>
      <trkpt lat="44.32841" lon="6.33427">
        <ele>1490.66</ele>
        <time>2022-04-16T11:35:53Z</time>
      </trkpt>
      <trkpt lat="44.32827" lon="6.33423">
        <ele>1490.18</ele>
        <time>2022-04-16T11:36:10Z</time>
      </trkpt>
      <trkpt lat="44.32811" lon="6.33429">
        <ele>1495.47</ele>
        <time>2022-04-16T11:36:24Z</time>
      </trkpt>
      <trkpt lat="44.32808" lon="6.33439">
        <ele>1496.91</ele>
        <time>2022-04-16T11:36:31Z</time>
      </trkpt>
      <trkpt lat="44.32808" lon="6.33455">
        <ele>1496.43</ele>
        <time>2022-04-16T11:36:47Z</time>
      </trkpt>
      <trkpt lat="44.32806" lon="6.33476">
        <ele>1493.55</ele>
        <time>2022-04-16T11:37:03Z</time>
      </trkpt>
      <trkpt lat="44.32802" lon="6.33493">
        <ele>1490.18</ele>
        <time>2022-04-16T11:37:15Z</time>
      </trkpt>
      <trkpt lat="44.328" lon="6.33519">
        <ele>1487.78</ele>
        <time>2022-04-16T11:37:33Z</time>
      </trkpt>
      <trkpt lat="44.32799" lon="6.33544">
        <ele>1486.34</ele>
        <time>2022-04-16T11:37:51Z</time>
      </trkpt>
      <trkpt lat="44.32799" lon="6.33568">
        <ele>1487.3</ele>
        <time>2022-04-16T11:38:09Z</time>
      </trkpt>
      <trkpt lat="44.32794" lon="6.3359">
        <ele>1490.18</ele>
        <time>2022-04-16T11:38:27Z</time>
      </trkpt>
      <trkpt lat="44.32784" lon="6.33607">
        <ele>1491.14</ele>
        <time>2022-04-16T11:38:42Z</time>
      </trkpt>
      <trkpt lat="44.32768" lon="6.33622">
        <ele>1493.55</ele>
        <time>2022-04-16T11:38:59Z</time>
      </trkpt>
      <trkpt lat="44.32764" lon="6.33626">
        <ele>1494.51</ele>
        <time>2022-04-16T11:39:03Z</time>
      </trkpt>
      <trkpt lat="44.32756" lon="6.33638">
        <ele>1496.43</ele>
        <time>2022-04-16T11:39:13Z</time>
      </trkpt>
      <trkpt lat="44.32756" lon="6.33649">
        <ele>1496.91</ele>
        <time>2022-04-16T11:39:26Z</time>
      </trkpt>
      <trkpt lat="44.32746" lon="6.33662">
        <ele>1500.76</ele>
        <time>2022-04-16T11:39:40Z</time>
      </trkpt>
      <trkpt lat="44.32737" lon="6.33675">
        <ele>1501.24</ele>
        <time>2022-04-16T11:39:52Z</time>
      </trkpt>
      <trkpt lat="44.32727" lon="6.33702">
        <ele>1495.47</ele>
        <time>2022-04-16T11:40:08Z</time>
      </trkpt>
      <trkpt lat="44.32727" lon="6.33703">
        <ele>1495.47</ele>
        <time>2022-04-16T11:40:09Z</time>
      </trkpt>
      <trkpt lat="44.32717" lon="6.33723">
        <ele>1491.14</ele>
        <time>2022-04-16T11:40:26Z</time>
      </trkpt>
      <trkpt lat="44.32712" lon="6.33742">
        <ele>1486.34</ele>
        <time>2022-04-16T11:40:44Z</time>
      </trkpt>
      <trkpt lat="44.327" lon="6.33749">
        <ele>1486.34</ele>
        <time>2022-04-16T11:40:58Z</time>
      </trkpt>
      <trkpt lat="44.32686" lon="6.33763">
        <ele>1484.41</ele>
        <time>2022-04-16T11:41:15Z</time>
      </trkpt>
      <trkpt lat="44.32667" lon="6.33765">
        <ele>1482.49</ele>
        <time>2022-04-16T11:41:32Z</time>
      </trkpt>
      <trkpt lat="44.32649" lon="6.33762">
        <ele>1481.05</ele>
        <time>2022-04-16T11:41:48Z</time>
      </trkpt>
      <trkpt lat="44.32628" lon="6.33751">
        <ele>1483.45</ele>
        <time>2022-04-16T11:42:06Z</time>
      </trkpt>
      <trkpt lat="44.32623" lon="6.3375">
        <ele>1484.41</ele>
        <time>2022-04-16T11:42:11Z</time>
      </trkpt>
      <trkpt lat="44.32603" lon="6.33751">
        <ele>1483.93</ele>
        <time>2022-04-16T11:42:29Z</time>
      </trkpt>
      <trkpt lat="44.32587" lon="6.33754">
        <ele>1482.97</ele>
        <time>2022-04-16T11:42:44Z</time>
      </trkpt>
      <trkpt lat="44.32568" lon="6.33757">
        <ele>1481.05</ele>
        <time>2022-04-16T11:43:00Z</time>
      </trkpt>
      <trkpt lat="44.32552" lon="6.33768">
        <ele>1482.49</ele>
        <time>2022-04-16T11:43:16Z</time>
      </trkpt>
      <trkpt lat="44.32545" lon="6.33783">
        <ele>1483.93</ele>
        <time>2022-04-16T11:43:29Z</time>
      </trkpt>
      <trkpt lat="44.32542" lon="6.33785">
        <ele>1484.41</ele>
        <time>2022-04-16T11:43:34Z</time>
      </trkpt>
      <trkpt lat="44.32523" lon="6.33797">
        <ele>1484.89</ele>
        <time>2022-04-16T11:43:49Z</time>
      </trkpt>
      <trkpt lat="44.32502" lon="6.33806">
        <ele>1483.93</ele>
        <time>2022-04-16T11:44:07Z</time>
      </trkpt>
      <trkpt lat="44.32483" lon="6.33813">
        <ele>1482.49</ele>
        <time>2022-04-16T11:44:23Z</time>
      </trkpt>
      <trkpt lat="44.32468" lon="6.33829">
        <ele>1479.13</ele>
        <time>2022-04-16T11:44:39Z</time>
      </trkpt>
      <trkpt lat="44.32456" lon="6.33837">
        <ele>1479.13</ele>
        <time>2022-04-16T11:44:50Z</time>
      </trkpt>
      <trkpt lat="44.32438" lon="6.33847">
        <ele>1476.72</ele>
        <time>2022-04-16T11:45:07Z</time>
      </trkpt>
      <trkpt lat="44.32417" lon="6.3385">
        <ele>1473.84</ele>
        <time>2022-04-16T11:45:25Z</time>
      </trkpt>
      <trkpt lat="44.32404" lon="6.33854">
        <ele>1471.44</ele>
        <time>2022-04-16T11:45:36Z</time>
      </trkpt>
      <trkpt lat="44.32386" lon="6.33861">
        <ele>1471.92</ele>
        <time>2022-04-16T11:45:52Z</time>
      </trkpt>
      <trkpt lat="44.3237" lon="6.33872">
        <ele>1475.76</ele>
        <time>2022-04-16T11:46:07Z</time>
      </trkpt>
      <trkpt lat="44.32356" lon="6.33882">
        <ele>1477.68</ele>
        <time>2022-04-16T11:46:22Z</time>
      </trkpt>
      <trkpt lat="44.32348" lon="6.33887">
        <ele>1480.09</ele>
        <time>2022-04-16T11:46:31Z</time>
      </trkpt>
      <trkpt lat="44.32333" lon="6.33893">
        <ele>1480.09</ele>
        <time>2022-04-16T11:46:46Z</time>
      </trkpt>
      <trkpt lat="44.32321" lon="6.33901">
        <ele>1483.45</ele>
        <time>2022-04-16T11:47:00Z</time>
      </trkpt>
      <trkpt lat="44.32322" lon="6.33909">
        <ele>1485.85</ele>
        <time>2022-04-16T11:47:16Z</time>
      </trkpt>
      <trkpt lat="44.32322" lon="6.33908">
        <ele>1487.3</ele>
        <time>2022-04-16T11:47:45Z</time>
      </trkpt>
      <trkpt lat="44.32322" lon="6.33908">
        <ele>1484.89</ele>
        <time>2022-04-16T11:48:15Z</time>
      </trkpt>
      <trkpt lat="44.32322" lon="6.33908">
        <ele>1484.41</ele>
        <time>2022-04-16T11:48:16Z</time>
      </trkpt>
      <trkpt lat="44.32309" lon="6.33903">
        <ele>1484.89</ele>
        <time>2022-04-16T11:48:34Z</time>
      </trkpt>
      <trkpt lat="44.32299" lon="6.33905">
        <ele>1484.41</ele>
        <time>2022-04-16T11:48:45Z</time>
      </trkpt>
      <trkpt lat="44.32284" lon="6.33909">
        <ele>1480.57</ele>
        <time>2022-04-16T11:49:02Z</time>
      </trkpt>
      <trkpt lat="44.32279" lon="6.3391">
        <ele>1479.61</ele>
        <time>2022-04-16T11:49:22Z</time>
      </trkpt>
      <trkpt lat="44.32275" lon="6.33912">
        <ele>1480.57</ele>
        <time>2022-04-16T11:49:42Z</time>
      </trkpt>
      <trkpt lat="44.32276" lon="6.33913">
        <ele>1481.05</ele>
        <time>2022-04-16T11:50:03Z</time>
      </trkpt>
      <trkpt lat="44.32275" lon="6.33917">
        <ele>1482.01</ele>
        <time>2022-04-16T11:50:27Z</time>
      </trkpt>
      <trkpt lat="44.32274" lon="6.33919">
        <ele>1482.01</ele>
        <time>2022-04-16T11:50:29Z</time>
      </trkpt>
      <trkpt lat="44.32268" lon="6.33942">
        <ele>1482.01</ele>
        <time>2022-04-16T11:50:45Z</time>
      </trkpt>
      <trkpt lat="44.32265" lon="6.33959">
        <ele>1484.89</ele>
        <time>2022-04-16T11:51:00Z</time>
      </trkpt>
      <trkpt lat="44.32259" lon="6.33973">
        <ele>1486.34</ele>
        <time>2022-04-16T11:51:17Z</time>
      </trkpt>
      <trkpt lat="44.32255" lon="6.33994">
        <ele>1485.85</ele>
        <time>2022-04-16T11:51:30Z</time>
      </trkpt>
      <trkpt lat="44.32255" lon="6.3402">
        <ele>1487.78</ele>
        <time>2022-04-16T11:51:48Z</time>
      </trkpt>
      <trkpt lat="44.32256" lon="6.34039">
        <ele>1492.1</ele>
        <time>2022-04-16T11:52:01Z</time>
      </trkpt>
      <trkpt lat="44.32255" lon="6.34056">
        <ele>1491.62</ele>
        <time>2022-04-16T11:52:17Z</time>
      </trkpt>
      <trkpt lat="44.32257" lon="6.34061">
        <ele>1490.66</ele>
        <time>2022-04-16T11:52:33Z</time>
      </trkpt>
      <trkpt lat="44.32248" lon="6.34071">
        <ele>1495.95</ele>
        <time>2022-04-16T11:52:49Z</time>
      </trkpt>
      <trkpt lat="44.32237" lon="6.34092">
        <ele>1501.72</ele>
        <time>2022-04-16T11:53:08Z</time>
      </trkpt>
      <trkpt lat="44.32222" lon="6.3411">
        <ele>1506.52</ele>
        <time>2022-04-16T11:53:26Z</time>
      </trkpt>
      <trkpt lat="44.32209" lon="6.34127">
        <ele>1508.45</ele>
        <time>2022-04-16T11:53:44Z</time>
      </trkpt>
      <trkpt lat="44.32198" lon="6.34145">
        <ele>1508.45</ele>
        <time>2022-04-16T11:54:01Z</time>
      </trkpt>
      <trkpt lat="44.32185" lon="6.34159">
        <ele>1509.89</ele>
        <time>2022-04-16T11:54:17Z</time>
      </trkpt>
      <trkpt lat="44.32168" lon="6.34169">
        <ele>1509.89</ele>
        <time>2022-04-16T11:54:33Z</time>
      </trkpt>
      <trkpt lat="44.32152" lon="6.34177">
        <ele>1509.41</ele>
        <time>2022-04-16T11:54:49Z</time>
      </trkpt>
      <trkpt lat="44.3214" lon="6.34187">
        <ele>1508.93</ele>
        <time>2022-04-16T11:55:05Z</time>
      </trkpt>
      <trkpt lat="44.32133" lon="6.34206">
        <ele>1512.77</ele>
        <time>2022-04-16T11:55:23Z</time>
      </trkpt>
      <trkpt lat="44.32128" lon="6.34219">
        <ele>1515.66</ele>
        <time>2022-04-16T11:55:34Z</time>
      </trkpt>
      <trkpt lat="44.32121" lon="6.34238">
        <ele>1516.62</ele>
        <time>2022-04-16T11:55:50Z</time>
      </trkpt>
      <trkpt lat="44.32119" lon="6.34239">
        <ele>1516.14</ele>
        <time>2022-04-16T11:56:03Z</time>
      </trkpt>
      <trkpt lat="44.32107" lon="6.34258">
        <ele>1515.18</ele>
        <time>2022-04-16T11:56:20Z</time>
      </trkpt>
      <trkpt lat="44.32093" lon="6.34271">
        <ele>1512.77</ele>
        <time>2022-04-16T11:56:36Z</time>
      </trkpt>
      <trkpt lat="44.32078" lon="6.34288">
        <ele>1507.97</ele>
        <time>2022-04-16T11:56:54Z</time>
      </trkpt>
      <trkpt lat="44.32075" lon="6.3429">
        <ele>1506.52</ele>
        <time>2022-04-16T11:57:06Z</time>
      </trkpt>
      <trkpt lat="44.32064" lon="6.34292">
        <ele>1507</ele>
        <time>2022-04-16T11:57:18Z</time>
      </trkpt>
      <trkpt lat="44.32042" lon="6.34293">
        <ele>1507.97</ele>
        <time>2022-04-16T11:57:34Z</time>
      </trkpt>
      <trkpt lat="44.32025" lon="6.34292">
        <ele>1508.45</ele>
        <time>2022-04-16T11:57:48Z</time>
      </trkpt>
      <trkpt lat="44.32019" lon="6.34307">
        <ele>1508.93</ele>
        <time>2022-04-16T11:58:00Z</time>
      </trkpt>
      <trkpt lat="44.32019" lon="6.3431">
        <ele>1508.93</ele>
        <time>2022-04-16T11:58:02Z</time>
      </trkpt>
      <trkpt lat="44.32025" lon="6.34328">
        <ele>1511.81</ele>
        <time>2022-04-16T11:58:19Z</time>
      </trkpt>
      <trkpt lat="44.32035" lon="6.34341">
        <ele>1516.62</ele>
        <time>2022-04-16T11:58:33Z</time>
      </trkpt>
      <trkpt lat="44.32051" lon="6.34355">
        <ele>1520.94</ele>
        <time>2022-04-16T11:58:51Z</time>
      </trkpt>
      <trkpt lat="44.32062" lon="6.34362">
        <ele>1521.9</ele>
        <time>2022-04-16T11:59:02Z</time>
      </trkpt>
      <trkpt lat="44.32079" lon="6.34367">
        <ele>1522.87</ele>
        <time>2022-04-16T11:59:19Z</time>
      </trkpt>
      <trkpt lat="44.32097" lon="6.34365">
        <ele>1525.75</ele>
        <time>2022-04-16T11:59:35Z</time>
      </trkpt>
      <trkpt lat="44.32111" lon="6.34367">
        <ele>1525.75</ele>
        <time>2022-04-16T11:59:49Z</time>
      </trkpt>
      <trkpt lat="44.32123" lon="6.34371">
        <ele>1522.39</ele>
        <time>2022-04-16T12:00:02Z</time>
      </trkpt>
      <trkpt lat="44.32136" lon="6.34383">
        <ele>1520.46</ele>
        <time>2022-04-16T12:00:19Z</time>
      </trkpt>
      <trkpt lat="44.32136" lon="6.34393">
        <ele>1521.9</ele>
        <time>2022-04-16T12:00:33Z</time>
      </trkpt>
      <trkpt lat="44.32129" lon="6.34397">
        <ele>1524.31</ele>
        <time>2022-04-16T12:00:46Z</time>
      </trkpt>
      <trkpt lat="44.32124" lon="6.34398">
        <ele>1523.83</ele>
        <time>2022-04-16T12:01:06Z</time>
      </trkpt>
      <trkpt lat="44.32115" lon="6.34398">
        <ele>1525.27</ele>
        <time>2022-04-16T12:01:22Z</time>
      </trkpt>
      <trkpt lat="44.32111" lon="6.34399">
        <ele>1525.75</ele>
        <time>2022-04-16T12:01:42Z</time>
      </trkpt>
      <trkpt lat="44.32111" lon="6.344">
        <ele>1526.23</ele>
        <time>2022-04-16T12:02:18Z</time>
      </trkpt>
      <trkpt lat="44.3211" lon="6.34401">
        <ele>1525.75</ele>
        <time>2022-04-16T12:02:36Z</time>
      </trkpt>
      <trkpt lat="44.3211" lon="6.34402">
        <ele>1523.83</ele>
        <time>2022-04-16T12:03:11Z</time>
      </trkpt>
      <trkpt lat="44.32103" lon="6.34405">
        <ele>1525.27</ele>
        <time>2022-04-16T12:03:28Z</time>
      </trkpt>
      <trkpt lat="44.32092" lon="6.34405">
        <ele>1527.67</ele>
        <time>2022-04-16T12:03:39Z</time>
      </trkpt>
      <trkpt lat="44.32076" lon="6.34408">
        <ele>1530.56</ele>
        <time>2022-04-16T12:03:54Z</time>
      </trkpt>
      <trkpt lat="44.32061" lon="6.34411">
        <ele>1533.44</ele>
        <time>2022-04-16T12:04:12Z</time>
      </trkpt>
      <trkpt lat="44.32049" lon="6.34411">
        <ele>1538.25</ele>
        <time>2022-04-16T12:04:27Z</time>
      </trkpt>
      <trkpt lat="44.32036" lon="6.34415">
        <ele>1538.25</ele>
        <time>2022-04-16T12:04:43Z</time>
      </trkpt>
      <trkpt lat="44.32019" lon="6.34419">
        <ele>1537.77</ele>
        <time>2022-04-16T12:04:59Z</time>
      </trkpt>
      <trkpt lat="44.32004" lon="6.34422">
        <ele>1540.65</ele>
        <time>2022-04-16T12:05:16Z</time>
      </trkpt>
      <trkpt lat="44.31991" lon="6.34419">
        <ele>1542.57</ele>
        <time>2022-04-16T12:05:32Z</time>
      </trkpt>
      <trkpt lat="44.31969" lon="6.34415">
        <ele>1542.09</ele>
        <time>2022-04-16T12:05:49Z</time>
      </trkpt>
      <trkpt lat="44.31961" lon="6.34405">
        <ele>1543.53</ele>
        <time>2022-04-16T12:06:05Z</time>
      </trkpt>
      <trkpt lat="44.31952" lon="6.34393">
        <ele>1545.94</ele>
        <time>2022-04-16T12:06:24Z</time>
      </trkpt>
      <trkpt lat="44.31939" lon="6.34373">
        <ele>1547.86</ele>
        <time>2022-04-16T12:06:44Z</time>
      </trkpt>
      <trkpt lat="44.31933" lon="6.34366">
        <ele>1548.34</ele>
        <time>2022-04-16T12:07:10Z</time>
      </trkpt>
      <trkpt lat="44.31918" lon="6.34343">
        <ele>1552.67</ele>
        <time>2022-04-16T12:07:29Z</time>
      </trkpt>
      <trkpt lat="44.31898" lon="6.34336">
        <ele>1552.67</ele>
        <time>2022-04-16T12:07:48Z</time>
      </trkpt>
      <trkpt lat="44.31878" lon="6.34336">
        <ele>1553.15</ele>
        <time>2022-04-16T12:08:04Z</time>
      </trkpt>
      <trkpt lat="44.31854" lon="6.34335">
        <ele>1553.15</ele>
        <time>2022-04-16T12:08:22Z</time>
      </trkpt>
      <trkpt lat="44.31835" lon="6.34338">
        <ele>1551.22</ele>
        <time>2022-04-16T12:08:39Z</time>
      </trkpt>
      <trkpt lat="44.31822" lon="6.34341">
        <ele>1551.22</ele>
        <time>2022-04-16T12:08:53Z</time>
      </trkpt>
      <trkpt lat="44.31804" lon="6.34349">
        <ele>1551.22</ele>
        <time>2022-04-16T12:09:09Z</time>
      </trkpt>
      <trkpt lat="44.31798" lon="6.34356">
        <ele>1550.74</ele>
        <time>2022-04-16T12:09:15Z</time>
      </trkpt>
      <trkpt lat="44.31786" lon="6.34366">
        <ele>1549.3</ele>
        <time>2022-04-16T12:09:25Z</time>
      </trkpt>
      <trkpt lat="44.31783" lon="6.34366">
        <ele>1549.3</ele>
        <time>2022-04-16T12:09:28Z</time>
      </trkpt>
      <trkpt lat="44.3177" lon="6.34378">
        <ele>1546.42</ele>
        <time>2022-04-16T12:09:44Z</time>
      </trkpt>
      <trkpt lat="44.31756" lon="6.34387">
        <ele>1546.42</ele>
        <time>2022-04-16T12:09:57Z</time>
      </trkpt>
      <trkpt lat="44.31745" lon="6.34408">
        <ele>1543.05</ele>
        <time>2022-04-16T12:10:14Z</time>
      </trkpt>
      <trkpt lat="44.31732" lon="6.34418">
        <ele>1544.01</ele>
        <time>2022-04-16T12:10:29Z</time>
      </trkpt>
      <trkpt lat="44.31728" lon="6.3442">
        <ele>1543.53</ele>
        <time>2022-04-16T12:10:41Z</time>
      </trkpt>
      <trkpt lat="44.31717" lon="6.34437">
        <ele>1544.5</ele>
        <time>2022-04-16T12:10:59Z</time>
      </trkpt>
      <trkpt lat="44.31707" lon="6.34454">
        <ele>1546.9</ele>
        <time>2022-04-16T12:11:18Z</time>
      </trkpt>
      <trkpt lat="44.31701" lon="6.34467">
        <ele>1549.3</ele>
        <time>2022-04-16T12:11:35Z</time>
      </trkpt>
      <trkpt lat="44.31693" lon="6.34484">
        <ele>1553.15</ele>
        <time>2022-04-16T12:11:50Z</time>
      </trkpt>
      <trkpt lat="44.3169" lon="6.34497">
        <ele>1553.63</ele>
        <time>2022-04-16T12:12:02Z</time>
      </trkpt>
      <trkpt lat="44.3169" lon="6.34507">
        <ele>1556.03</ele>
        <time>2022-04-16T12:12:24Z</time>
      </trkpt>
      <trkpt lat="44.31683" lon="6.34518">
        <ele>1560.36</ele>
        <time>2022-04-16T12:12:38Z</time>
      </trkpt>
      <trkpt lat="44.31672" lon="6.34536">
        <ele>1562.76</ele>
        <time>2022-04-16T12:12:55Z</time>
      </trkpt>
      <trkpt lat="44.31663" lon="6.34553">
        <ele>1565.64</ele>
        <time>2022-04-16T12:13:11Z</time>
      </trkpt>
      <trkpt lat="44.31656" lon="6.34567">
        <ele>1567.57</ele>
        <time>2022-04-16T12:13:23Z</time>
      </trkpt>
      <trkpt lat="44.31649" lon="6.34573">
        <ele>1569.01</ele>
        <time>2022-04-16T12:13:33Z</time>
      </trkpt>
      <trkpt lat="44.31639" lon="6.34581">
        <ele>1574.3</ele>
        <time>2022-04-16T12:13:48Z</time>
      </trkpt>
      <trkpt lat="44.31628" lon="6.34591">
        <ele>1573.82</ele>
        <time>2022-04-16T12:14:01Z</time>
      </trkpt>
      <trkpt lat="44.31625" lon="6.34596">
        <ele>1573.82</ele>
        <time>2022-04-16T12:14:05Z</time>
      </trkpt>
      <trkpt lat="44.31614" lon="6.34608">
        <ele>1575.26</ele>
        <time>2022-04-16T12:14:22Z</time>
      </trkpt>
      <trkpt lat="44.31609" lon="6.3462">
        <ele>1578.14</ele>
        <time>2022-04-16T12:14:35Z</time>
      </trkpt>
      <trkpt lat="44.31618" lon="6.3463">
        <ele>1574.78</ele>
        <time>2022-04-16T12:14:50Z</time>
      </trkpt>
      <trkpt lat="44.31625" lon="6.34634">
        <ele>1572.37</ele>
        <time>2022-04-16T12:15:03Z</time>
      </trkpt>
      <trkpt lat="44.31638" lon="6.34638">
        <ele>1567.57</ele>
        <time>2022-04-16T12:15:16Z</time>
      </trkpt>
      <trkpt lat="44.31652" lon="6.34646">
        <ele>1568.53</ele>
        <time>2022-04-16T12:15:31Z</time>
      </trkpt>
      <trkpt lat="44.31663" lon="6.34655">
        <ele>1569.49</ele>
        <time>2022-04-16T12:15:46Z</time>
      </trkpt>
      <trkpt lat="44.3167" lon="6.34652">
        <ele>1569.97</ele>
        <time>2022-04-16T12:15:59Z</time>
      </trkpt>
      <trkpt lat="44.31677" lon="6.34644">
        <ele>1569.01</ele>
        <time>2022-04-16T12:16:20Z</time>
      </trkpt>
      <trkpt lat="44.31689" lon="6.34637">
        <ele>1568.05</ele>
        <time>2022-04-16T12:16:34Z</time>
      </trkpt>
      <trkpt lat="44.31701" lon="6.34629">
        <ele>1564.68</ele>
        <time>2022-04-16T12:16:49Z</time>
      </trkpt>
      <trkpt lat="44.31713" lon="6.34617">
        <ele>1561.32</ele>
        <time>2022-04-16T12:17:05Z</time>
      </trkpt>
      <trkpt lat="44.31726" lon="6.34603">
        <ele>1560.84</ele>
        <time>2022-04-16T12:17:19Z</time>
      </trkpt>
      <trkpt lat="44.31737" lon="6.34598">
        <ele>1564.2</ele>
        <time>2022-04-16T12:17:34Z</time>
      </trkpt>
      <trkpt lat="44.31749" lon="6.34592">
        <ele>1566.61</ele>
        <time>2022-04-16T12:17:49Z</time>
      </trkpt>
      <trkpt lat="44.31764" lon="6.34581">
        <ele>1565.64</ele>
        <time>2022-04-16T12:18:07Z</time>
      </trkpt>
      <trkpt lat="44.31775" lon="6.34574">
        <ele>1565.64</ele>
        <time>2022-04-16T12:18:21Z</time>
      </trkpt>
      <trkpt lat="44.31785" lon="6.34567">
        <ele>1564.68</ele>
        <time>2022-04-16T12:18:36Z</time>
      </trkpt>
      <trkpt lat="44.31796" lon="6.34552">
        <ele>1559.88</ele>
        <time>2022-04-16T12:18:53Z</time>
      </trkpt>
      <trkpt lat="44.31801" lon="6.34545">
        <ele>1557.95</ele>
        <time>2022-04-16T12:19:11Z</time>
      </trkpt>
      <trkpt lat="44.31807" lon="6.34523">
        <ele>1558.92</ele>
        <time>2022-04-16T12:19:29Z</time>
      </trkpt>
      <trkpt lat="44.3181" lon="6.34504">
        <ele>1562.76</ele>
        <time>2022-04-16T12:19:42Z</time>
      </trkpt>
      <trkpt lat="44.31816" lon="6.34487">
        <ele>1561.8</ele>
        <time>2022-04-16T12:19:58Z</time>
      </trkpt>
      <trkpt lat="44.31821" lon="6.34476">
        <ele>1562.76</ele>
        <time>2022-04-16T12:20:14Z</time>
      </trkpt>
      <trkpt lat="44.31823" lon="6.34467">
        <ele>1561.8</ele>
        <time>2022-04-16T12:20:29Z</time>
      </trkpt>
      <trkpt lat="44.31829" lon="6.34453">
        <ele>1563.24</ele>
        <time>2022-04-16T12:20:47Z</time>
      </trkpt>
      <trkpt lat="44.31833" lon="6.34445">
        <ele>1564.2</ele>
        <time>2022-04-16T12:21:08Z</time>
      </trkpt>
      <trkpt lat="44.31846" lon="6.34424">
        <ele>1565.16</ele>
        <time>2022-04-16T12:21:28Z</time>
      </trkpt>
      <trkpt lat="44.3186" lon="6.34411">
        <ele>1566.61</ele>
        <time>2022-04-16T12:21:47Z</time>
      </trkpt>
      <trkpt lat="44.31868" lon="6.34398">
        <ele>1569.01</ele>
        <time>2022-04-16T12:22:02Z</time>
      </trkpt>
      <trkpt lat="44.31881" lon="6.3439">
        <ele>1569.01</ele>
        <time>2022-04-16T12:22:22Z</time>
      </trkpt>
      <trkpt lat="44.31893" lon="6.34383">
        <ele>1569.01</ele>
        <time>2022-04-16T12:22:37Z</time>
      </trkpt>
      <trkpt lat="44.31902" lon="6.3438">
        <ele>1566.12</ele>
        <time>2022-04-16T12:22:53Z</time>
      </trkpt>
      <trkpt lat="44.3192" lon="6.34374">
        <ele>1564.2</ele>
        <time>2022-04-16T12:23:15Z</time>
      </trkpt>
      <trkpt lat="44.31923" lon="6.34376">
        <ele>1563.72</ele>
        <time>2022-04-16T12:23:38Z</time>
      </trkpt>
      <trkpt lat="44.3193" lon="6.3438">
        <ele>1563.24</ele>
        <time>2022-04-16T12:23:57Z</time>
      </trkpt>
      <trkpt lat="44.31939" lon="6.34391">
        <ele>1561.32</ele>
        <time>2022-04-16T12:24:13Z</time>
      </trkpt>
      <trkpt lat="44.31951" lon="6.344">
        <ele>1560.84</ele>
        <time>2022-04-16T12:24:30Z</time>
      </trkpt>
      <trkpt lat="44.31955" lon="6.34403">
        <ele>1559.88</ele>
        <time>2022-04-16T12:24:47Z</time>
      </trkpt>
      <trkpt lat="44.31962" lon="6.34416">
        <ele>1558.92</ele>
        <time>2022-04-16T12:25:06Z</time>
      </trkpt>
      <trkpt lat="44.31975" lon="6.34422">
        <ele>1556.51</ele>
        <time>2022-04-16T12:25:22Z</time>
      </trkpt>
      <trkpt lat="44.31996" lon="6.34435">
        <ele>1554.59</ele>
        <time>2022-04-16T12:25:42Z</time>
      </trkpt>
      <trkpt lat="44.32013" lon="6.34426">
        <ele>1557.95</ele>
        <time>2022-04-16T12:25:57Z</time>
      </trkpt>
      <trkpt lat="44.32034" lon="6.34423">
        <ele>1556.99</ele>
        <time>2022-04-16T12:26:15Z</time>
      </trkpt>
      <trkpt lat="44.32047" lon="6.34419">
        <ele>1552.67</ele>
        <time>2022-04-16T12:26:30Z</time>
      </trkpt>
      <trkpt lat="44.3206" lon="6.34417">
        <ele>1551.22</ele>
        <time>2022-04-16T12:26:44Z</time>
      </trkpt>
      <trkpt lat="44.32074" lon="6.34412">
        <ele>1552.19</ele>
        <time>2022-04-16T12:26:59Z</time>
      </trkpt>
      <trkpt lat="44.32088" lon="6.3441">
        <ele>1551.71</ele>
        <time>2022-04-16T12:27:14Z</time>
      </trkpt>
      <trkpt lat="44.32103" lon="6.34411">
        <ele>1552.67</ele>
        <time>2022-04-16T12:27:30Z</time>
      </trkpt>
      <trkpt lat="44.32121" lon="6.34405">
        <ele>1544.98</ele>
        <time>2022-04-16T12:27:46Z</time>
      </trkpt>
      <trkpt lat="44.32132" lon="6.34405">
        <ele>1538.25</ele>
        <time>2022-04-16T12:27:58Z</time>
      </trkpt>
      <trkpt lat="44.32139" lon="6.34397">
        <ele>1531.52</ele>
        <time>2022-04-16T12:28:06Z</time>
      </trkpt>
      <trkpt lat="44.32139" lon="6.34391">
        <ele>1530.08</ele>
        <time>2022-04-16T12:28:10Z</time>
      </trkpt>
      <trkpt lat="44.32138" lon="6.34387">
        <ele>1529.59</ele>
        <time>2022-04-16T12:28:13Z</time>
      </trkpt>
      <trkpt lat="44.32125" lon="6.34372">
        <ele>1524.79</ele>
        <time>2022-04-16T12:28:31Z</time>
      </trkpt>
      <trkpt lat="44.32115" lon="6.34368">
        <ele>1522.39</ele>
        <time>2022-04-16T12:28:42Z</time>
      </trkpt>
      <trkpt lat="44.32102" lon="6.34362">
        <ele>1522.39</ele>
        <time>2022-04-16T12:28:56Z</time>
      </trkpt>
      <trkpt lat="44.32086" lon="6.34359">
        <ele>1520.46</ele>
        <time>2022-04-16T12:29:11Z</time>
      </trkpt>
      <trkpt lat="44.32064" lon="6.34358">
        <ele>1517.58</ele>
        <time>2022-04-16T12:29:31Z</time>
      </trkpt>
      <trkpt lat="44.32047" lon="6.34348">
        <ele>1515.18</ele>
        <time>2022-04-16T12:29:49Z</time>
      </trkpt>
      <trkpt lat="44.32037" lon="6.34337">
        <ele>1514.21</ele>
        <time>2022-04-16T12:30:02Z</time>
      </trkpt>
      <trkpt lat="44.32031" lon="6.3433">
        <ele>1514.21</ele>
        <time>2022-04-16T12:30:11Z</time>
      </trkpt>
      <trkpt lat="44.32025" lon="6.34316">
        <ele>1514.21</ele>
        <time>2022-04-16T12:30:23Z</time>
      </trkpt>
      <trkpt lat="44.32025" lon="6.34311">
        <ele>1514.21</ele>
        <time>2022-04-16T12:30:27Z</time>
      </trkpt>
      <trkpt lat="44.32028" lon="6.34301">
        <ele>1513.73</ele>
        <time>2022-04-16T12:30:37Z</time>
      </trkpt>
      <trkpt lat="44.3203" lon="6.34298">
        <ele>1513.25</ele>
        <time>2022-04-16T12:30:42Z</time>
      </trkpt>
      <trkpt lat="44.32045" lon="6.343">
        <ele>1512.29</ele>
        <time>2022-04-16T12:30:59Z</time>
      </trkpt>
      <trkpt lat="44.32056" lon="6.343">
        <ele>1510.85</ele>
        <time>2022-04-16T12:31:11Z</time>
      </trkpt>
      <trkpt lat="44.32077" lon="6.34291">
        <ele>1509.41</ele>
        <time>2022-04-16T12:31:30Z</time>
      </trkpt>
      <trkpt lat="44.3209" lon="6.34277">
        <ele>1505.08</ele>
        <time>2022-04-16T12:31:44Z</time>
      </trkpt>
      <trkpt lat="44.32108" lon="6.34259">
        <ele>1501.72</ele>
        <time>2022-04-16T12:32:01Z</time>
      </trkpt>
      <trkpt lat="44.32121" lon="6.34237">
        <ele>1499.31</ele>
        <time>2022-04-16T12:32:17Z</time>
      </trkpt>
      <trkpt lat="44.32127" lon="6.34221">
        <ele>1497.39</ele>
        <time>2022-04-16T12:32:29Z</time>
      </trkpt>
      <trkpt lat="44.32133" lon="6.34203">
        <ele>1497.87</ele>
        <time>2022-04-16T12:32:44Z</time>
      </trkpt>
      <trkpt lat="44.32133" lon="6.34201">
        <ele>1497.87</ele>
        <time>2022-04-16T12:32:45Z</time>
      </trkpt>
      <trkpt lat="44.32142" lon="6.34187">
        <ele>1495.95</ele>
        <time>2022-04-16T12:32:59Z</time>
      </trkpt>
      <trkpt lat="44.3216" lon="6.34182">
        <ele>1496.43</ele>
        <time>2022-04-16T12:33:19Z</time>
      </trkpt>
      <trkpt lat="44.3218" lon="6.34171">
        <ele>1499.79</ele>
        <time>2022-04-16T12:33:39Z</time>
      </trkpt>
      <trkpt lat="44.32185" lon="6.34167">
        <ele>1499.31</ele>
        <time>2022-04-16T12:33:44Z</time>
      </trkpt>
      <trkpt lat="44.322" lon="6.34146">
        <ele>1496.43</ele>
        <time>2022-04-16T12:34:02Z</time>
      </trkpt>
      <trkpt lat="44.32212" lon="6.34131">
        <ele>1493.06</ele>
        <time>2022-04-16T12:34:19Z</time>
      </trkpt>
      <trkpt lat="44.32227" lon="6.34111">
        <ele>1493.06</ele>
        <time>2022-04-16T12:34:36Z</time>
      </trkpt>
      <trkpt lat="44.3224" lon="6.34093">
        <ele>1491.14</ele>
        <time>2022-04-16T12:34:51Z</time>
      </trkpt>
      <trkpt lat="44.32252" lon="6.34072">
        <ele>1491.14</ele>
        <time>2022-04-16T12:35:09Z</time>
      </trkpt>
      <trkpt lat="44.32257" lon="6.34052">
        <ele>1494.03</ele>
        <time>2022-04-16T12:35:24Z</time>
      </trkpt>
      <trkpt lat="44.32262" lon="6.34031">
        <ele>1493.55</ele>
        <time>2022-04-16T12:35:41Z</time>
      </trkpt>
      <trkpt lat="44.32261" lon="6.3403">
        <ele>1493.06</ele>
        <time>2022-04-16T12:35:48Z</time>
      </trkpt>
      <trkpt lat="44.32261" lon="6.34026">
        <ele>1493.06</ele>
        <time>2022-04-16T12:35:51Z</time>
      </trkpt>
      <trkpt lat="44.32265" lon="6.34">
        <ele>1494.51</ele>
        <time>2022-04-16T12:36:10Z</time>
      </trkpt>
      <trkpt lat="44.3227" lon="6.33978">
        <ele>1496.91</ele>
        <time>2022-04-16T12:36:27Z</time>
      </trkpt>
      <trkpt lat="44.32271" lon="6.33975">
        <ele>1497.39</ele>
        <time>2022-04-16T12:36:30Z</time>
      </trkpt>
      <trkpt lat="44.32273" lon="6.33964">
        <ele>1496.91</ele>
        <time>2022-04-16T12:36:36Z</time>
      </trkpt>
      <trkpt lat="44.32274" lon="6.33939">
        <ele>1490.66</ele>
        <time>2022-04-16T12:36:55Z</time>
      </trkpt>
      <trkpt lat="44.32274" lon="6.33934">
        <ele>1489.22</ele>
        <time>2022-04-16T12:37:11Z</time>
      </trkpt>
      <trkpt lat="44.32275" lon="6.33928">
        <ele>1488.74</ele>
        <time>2022-04-16T12:37:17Z</time>
      </trkpt>
      <trkpt lat="44.32278" lon="6.33925">
        <ele>1488.74</ele>
        <time>2022-04-16T12:37:23Z</time>
      </trkpt>
      <trkpt lat="44.32292" lon="6.33918">
        <ele>1489.22</ele>
        <time>2022-04-16T12:37:38Z</time>
      </trkpt>
      <trkpt lat="44.32306" lon="6.33913">
        <ele>1487.78</ele>
        <time>2022-04-16T12:37:53Z</time>
      </trkpt>
      <trkpt lat="44.32311" lon="6.3391">
        <ele>1486.82</ele>
        <time>2022-04-16T12:38:04Z</time>
      </trkpt>
      <trkpt lat="44.32328" lon="6.33904">
        <ele>1484.89</ele>
        <time>2022-04-16T12:38:20Z</time>
      </trkpt>
      <trkpt lat="44.32347" lon="6.33896">
        <ele>1483.45</ele>
        <time>2022-04-16T12:38:38Z</time>
      </trkpt>
      <trkpt lat="44.3235" lon="6.33896">
        <ele>1483.45</ele>
        <time>2022-04-16T12:38:40Z</time>
      </trkpt>
      <trkpt lat="44.32366" lon="6.33887">
        <ele>1482.01</ele>
        <time>2022-04-16T12:38:56Z</time>
      </trkpt>
      <trkpt lat="44.32379" lon="6.33877">
        <ele>1480.57</ele>
        <time>2022-04-16T12:39:11Z</time>
      </trkpt>
      <trkpt lat="44.32387" lon="6.3387">
        <ele>1479.61</ele>
        <time>2022-04-16T12:39:21Z</time>
      </trkpt>
      <trkpt lat="44.32406" lon="6.33862">
        <ele>1476.72</ele>
        <time>2022-04-16T12:39:38Z</time>
      </trkpt>
      <trkpt lat="44.32423" lon="6.33857">
        <ele>1472.4</ele>
        <time>2022-04-16T12:39:55Z</time>
      </trkpt>
      <trkpt lat="44.32444" lon="6.33852">
        <ele>1474.32</ele>
        <time>2022-04-16T12:40:13Z</time>
      </trkpt>
      <trkpt lat="44.3246" lon="6.33843">
        <ele>1475.76</ele>
        <time>2022-04-16T12:40:28Z</time>
      </trkpt>
      <trkpt lat="44.32477" lon="6.33832">
        <ele>1475.76</ele>
        <time>2022-04-16T12:40:46Z</time>
      </trkpt>
      <trkpt lat="44.32493" lon="6.3382">
        <ele>1475.76</ele>
        <time>2022-04-16T12:41:01Z</time>
      </trkpt>
      <trkpt lat="44.325" lon="6.33817">
        <ele>1475.76</ele>
        <time>2022-04-16T12:41:07Z</time>
      </trkpt>
      <trkpt lat="44.32516" lon="6.33811">
        <ele>1476.72</ele>
        <time>2022-04-16T12:41:23Z</time>
      </trkpt>
      <trkpt lat="44.32532" lon="6.338">
        <ele>1476.72</ele>
        <time>2022-04-16T12:41:38Z</time>
      </trkpt>
      <trkpt lat="44.32546" lon="6.33784">
        <ele>1478.65</ele>
        <time>2022-04-16T12:41:56Z</time>
      </trkpt>
      <trkpt lat="44.32563" lon="6.33771">
        <ele>1483.45</ele>
        <time>2022-04-16T12:42:13Z</time>
      </trkpt>
      <trkpt lat="44.32567" lon="6.33769">
        <ele>1485.37</ele>
        <time>2022-04-16T12:42:17Z</time>
      </trkpt>
      <trkpt lat="44.32584" lon="6.3376">
        <ele>1487.3</ele>
        <time>2022-04-16T12:42:34Z</time>
      </trkpt>
      <trkpt lat="44.32602" lon="6.33757">
        <ele>1487.78</ele>
        <time>2022-04-16T12:42:51Z</time>
      </trkpt>
      <trkpt lat="44.32615" lon="6.33756">
        <ele>1490.18</ele>
        <time>2022-04-16T12:43:05Z</time>
      </trkpt>
      <trkpt lat="44.32632" lon="6.33761">
        <ele>1494.99</ele>
        <time>2022-04-16T12:43:21Z</time>
      </trkpt>
      <trkpt lat="44.32647" lon="6.33762">
        <ele>1497.87</ele>
        <time>2022-04-16T12:43:37Z</time>
      </trkpt>
      <trkpt lat="44.32665" lon="6.33767">
        <ele>1498.83</ele>
        <time>2022-04-16T12:43:54Z</time>
      </trkpt>
      <trkpt lat="44.32681" lon="6.33767">
        <ele>1498.83</ele>
        <time>2022-04-16T12:44:08Z</time>
      </trkpt>
      <trkpt lat="44.32698" lon="6.33756">
        <ele>1494.51</ele>
        <time>2022-04-16T12:44:25Z</time>
      </trkpt>
      <trkpt lat="44.32706" lon="6.33746">
        <ele>1492.58</ele>
        <time>2022-04-16T12:44:40Z</time>
      </trkpt>
      <trkpt lat="44.32713" lon="6.33729">
        <ele>1488.74</ele>
        <time>2022-04-16T12:44:54Z</time>
      </trkpt>
      <trkpt lat="44.32715" lon="6.33725">
        <ele>1488.74</ele>
        <time>2022-04-16T12:44:58Z</time>
      </trkpt>
      <trkpt lat="44.32725" lon="6.33708">
        <ele>1490.66</ele>
        <time>2022-04-16T12:45:15Z</time>
      </trkpt>
      <trkpt lat="44.32735" lon="6.33693">
        <ele>1490.66</ele>
        <time>2022-04-16T12:45:28Z</time>
      </trkpt>
      <trkpt lat="44.32748" lon="6.33669">
        <ele>1490.18</ele>
        <time>2022-04-16T12:45:50Z</time>
      </trkpt>
      <trkpt lat="44.32758" lon="6.3365">
        <ele>1488.26</ele>
        <time>2022-04-16T12:46:06Z</time>
      </trkpt>
      <trkpt lat="44.32769" lon="6.33631">
        <ele>1488.74</ele>
        <time>2022-04-16T12:46:24Z</time>
      </trkpt>
      <trkpt lat="44.32783" lon="6.33615">
        <ele>1489.22</ele>
        <time>2022-04-16T12:46:40Z</time>
      </trkpt>
      <trkpt lat="44.32791" lon="6.33595">
        <ele>1491.14</ele>
        <time>2022-04-16T12:46:58Z</time>
      </trkpt>
      <trkpt lat="44.32791" lon="6.33594">
        <ele>1491.62</ele>
        <time>2022-04-16T12:46:59Z</time>
      </trkpt>
      <trkpt lat="44.32798" lon="6.33574">
        <ele>1495.95</ele>
        <time>2022-04-16T12:47:17Z</time>
      </trkpt>
      <trkpt lat="44.32802" lon="6.33558">
        <ele>1498.83</ele>
        <time>2022-04-16T12:47:31Z</time>
      </trkpt>
      <trkpt lat="44.32806" lon="6.33538">
        <ele>1501.24</ele>
        <time>2022-04-16T12:47:47Z</time>
      </trkpt>
      <trkpt lat="44.3281" lon="6.33518">
        <ele>1504.6</ele>
        <time>2022-04-16T12:48:02Z</time>
      </trkpt>
      <trkpt lat="44.32811" lon="6.33498">
        <ele>1508.45</ele>
        <time>2022-04-16T12:48:17Z</time>
      </trkpt>
      <trkpt lat="44.32809" lon="6.33489">
        <ele>1509.89</ele>
        <time>2022-04-16T12:48:28Z</time>
      </trkpt>
      <trkpt lat="44.32811" lon="6.33458">
        <ele>1511.81</ele>
        <time>2022-04-16T12:48:45Z</time>
      </trkpt>
      <trkpt lat="44.32816" lon="6.33439">
        <ele>1513.25</ele>
        <time>2022-04-16T12:48:59Z</time>
      </trkpt>
      <trkpt lat="44.32827" lon="6.33433">
        <ele>1513.25</ele>
        <time>2022-04-16T12:49:15Z</time>
      </trkpt>
      <trkpt lat="44.32832" lon="6.33433">
        <ele>1512.29</ele>
        <time>2022-04-16T12:49:19Z</time>
      </trkpt>
      <trkpt lat="44.32837" lon="6.33435">
        <ele>1510.37</ele>
        <time>2022-04-16T12:49:24Z</time>
      </trkpt>
      <trkpt lat="44.32854" lon="6.33421">
        <ele>1502.68</ele>
        <time>2022-04-16T12:49:38Z</time>
      </trkpt>
      <trkpt lat="44.32859" lon="6.33413">
        <ele>1496.91</ele>
        <time>2022-04-16T12:49:45Z</time>
      </trkpt>
      <trkpt lat="44.32859" lon="6.3339">
        <ele>1489.7</ele>
        <time>2022-04-16T12:50:00Z</time>
      </trkpt>
      <trkpt lat="44.32859" lon="6.33387">
        <ele>1489.22</ele>
        <time>2022-04-16T12:50:02Z</time>
      </trkpt>
      <trkpt lat="44.3286" lon="6.33359">
        <ele>1485.37</ele>
        <time>2022-04-16T12:50:22Z</time>
      </trkpt>
      <trkpt lat="44.32859" lon="6.33337">
        <ele>1486.82</ele>
        <time>2022-04-16T12:50:37Z</time>
      </trkpt>
      <trkpt lat="44.32863" lon="6.33319">
        <ele>1490.66</ele>
        <time>2022-04-16T12:50:53Z</time>
      </trkpt>
      <trkpt lat="44.32865" lon="6.33305">
        <ele>1492.1</ele>
        <time>2022-04-16T12:51:09Z</time>
      </trkpt>
      <trkpt lat="44.32864" lon="6.33281">
        <ele>1494.51</ele>
        <time>2022-04-16T12:51:25Z</time>
      </trkpt>
      <trkpt lat="44.32861" lon="6.33269">
        <ele>1491.62</ele>
        <time>2022-04-16T12:51:33Z</time>
      </trkpt>
      <trkpt lat="44.32851" lon="6.33256">
        <ele>1488.26</ele>
        <time>2022-04-16T12:51:48Z</time>
      </trkpt>
      <trkpt lat="44.32852" lon="6.33246">
        <ele>1486.34</ele>
        <time>2022-04-16T12:51:59Z</time>
      </trkpt>
      <trkpt lat="44.32852" lon="6.33233">
        <ele>1484.41</ele>
        <time>2022-04-16T12:52:12Z</time>
      </trkpt>
      <trkpt lat="44.32856" lon="6.33219">
        <ele>1484.89</ele>
        <time>2022-04-16T12:52:25Z</time>
      </trkpt>
      <trkpt lat="44.32859" lon="6.332">
        <ele>1484.89</ele>
        <time>2022-04-16T12:52:42Z</time>
      </trkpt>
      <trkpt lat="44.32853" lon="6.33176">
        <ele>1484.41</ele>
        <time>2022-04-16T12:52:59Z</time>
      </trkpt>
      <trkpt lat="44.32853" lon="6.3317">
        <ele>1483.45</ele>
        <time>2022-04-16T12:53:11Z</time>
      </trkpt>
      <trkpt lat="44.32859" lon="6.33165">
        <ele>1481.05</ele>
        <time>2022-04-16T12:53:25Z</time>
      </trkpt>
      <trkpt lat="44.3286" lon="6.33163">
        <ele>1481.05</ele>
        <time>2022-04-16T12:53:27Z</time>
      </trkpt>
      <trkpt lat="44.32874" lon="6.33153">
        <ele>1480.57</ele>
        <time>2022-04-16T12:53:43Z</time>
      </trkpt>
      <trkpt lat="44.32877" lon="6.33136">
        <ele>1482.97</ele>
        <time>2022-04-16T12:53:59Z</time>
      </trkpt>
      <trkpt lat="44.32873" lon="6.3312">
        <ele>1486.34</ele>
        <time>2022-04-16T12:54:14Z</time>
      </trkpt>
      <trkpt lat="44.32875" lon="6.33104">
        <ele>1490.66</ele>
        <time>2022-04-16T12:54:28Z</time>
      </trkpt>
      <trkpt lat="44.32863" lon="6.33086">
        <ele>1492.1</ele>
        <time>2022-04-16T12:54:44Z</time>
      </trkpt>
      <trkpt lat="44.32866" lon="6.33072">
        <ele>1494.99</ele>
        <time>2022-04-16T12:55:00Z</time>
      </trkpt>
      <trkpt lat="44.3287" lon="6.33057">
        <ele>1497.87</ele>
        <time>2022-04-16T12:55:15Z</time>
      </trkpt>
      <trkpt lat="44.32872" lon="6.33047">
        <ele>1498.83</ele>
        <time>2022-04-16T12:55:29Z</time>
      </trkpt>
      <trkpt lat="44.32874" lon="6.33034">
        <ele>1498.35</ele>
        <time>2022-04-16T12:55:46Z</time>
      </trkpt>
      <trkpt lat="44.32877" lon="6.33018">
        <ele>1497.87</ele>
        <time>2022-04-16T12:56:08Z</time>
      </trkpt>
      <trkpt lat="44.32878" lon="6.32996">
        <ele>1495.95</ele>
        <time>2022-04-16T12:56:24Z</time>
      </trkpt>
      <trkpt lat="44.3287" lon="6.32976">
        <ele>1497.87</ele>
        <time>2022-04-16T12:56:40Z</time>
      </trkpt>
      <trkpt lat="44.32861" lon="6.32977">
        <ele>1501.24</ele>
        <time>2022-04-16T12:56:54Z</time>
      </trkpt>
      <trkpt lat="44.32851" lon="6.32993">
        <ele>1504.6</ele>
        <time>2022-04-16T12:57:13Z</time>
      </trkpt>
      <trkpt lat="44.32843" lon="6.32994">
        <ele>1505.56</ele>
        <time>2022-04-16T12:57:21Z</time>
      </trkpt>
      <trkpt lat="44.32829" lon="6.32992">
        <ele>1505.56</ele>
        <time>2022-04-16T12:57:36Z</time>
      </trkpt>
      <trkpt lat="44.32828" lon="6.32992">
        <ele>1505.56</ele>
        <time>2022-04-16T12:57:37Z</time>
      </trkpt>
      <trkpt lat="44.32816" lon="6.32983">
        <ele>1498.83</ele>
        <time>2022-04-16T12:57:53Z</time>
      </trkpt>
      <trkpt lat="44.32821" lon="6.3297">
        <ele>1494.03</ele>
        <time>2022-04-16T12:58:08Z</time>
      </trkpt>
      <trkpt lat="44.32828" lon="6.32955">
        <ele>1493.06</ele>
        <time>2022-04-16T12:58:22Z</time>
      </trkpt>
      <trkpt lat="44.32827" lon="6.32949">
        <ele>1493.55</ele>
        <time>2022-04-16T12:58:28Z</time>
      </trkpt>
      <trkpt lat="44.32823" lon="6.32933">
        <ele>1493.06</ele>
        <time>2022-04-16T12:58:43Z</time>
      </trkpt>
      <trkpt lat="44.32816" lon="6.32917">
        <ele>1491.14</ele>
        <time>2022-04-16T12:58:59Z</time>
      </trkpt>
      <trkpt lat="44.32811" lon="6.32903">
        <ele>1488.74</ele>
        <time>2022-04-16T12:59:12Z</time>
      </trkpt>
      <trkpt lat="44.32806" lon="6.32888">
        <ele>1485.85</ele>
        <time>2022-04-16T12:59:26Z</time>
      </trkpt>
      <trkpt lat="44.32804" lon="6.32875">
        <ele>1484.41</ele>
        <time>2022-04-16T12:59:41Z</time>
      </trkpt>
      <trkpt lat="44.32802" lon="6.32865">
        <ele>1483.93</ele>
        <time>2022-04-16T12:59:56Z</time>
      </trkpt>
      <trkpt lat="44.32801" lon="6.32849">
        <ele>1482.49</ele>
        <time>2022-04-16T13:00:11Z</time>
      </trkpt>
      <trkpt lat="44.32802" lon="6.32836">
        <ele>1479.13</ele>
        <time>2022-04-16T13:00:27Z</time>
      </trkpt>
      <trkpt lat="44.32802" lon="6.32832">
        <ele>1476.72</ele>
        <time>2022-04-16T13:00:46Z</time>
      </trkpt>
      <trkpt lat="44.32805" lon="6.32829">
        <ele>1476.24</ele>
        <time>2022-04-16T13:01:02Z</time>
      </trkpt>
      <trkpt lat="44.32807" lon="6.32818">
        <ele>1475.28</ele>
        <time>2022-04-16T13:01:16Z</time>
      </trkpt>
      <trkpt lat="44.32812" lon="6.328">
        <ele>1474.8</ele>
        <time>2022-04-16T13:01:32Z</time>
      </trkpt>
      <trkpt lat="44.32821" lon="6.32784">
        <ele>1472.88</ele>
        <time>2022-04-16T13:01:49Z</time>
      </trkpt>
      <trkpt lat="44.32823" lon="6.32781">
        <ele>1470.95</ele>
        <time>2022-04-16T13:02:08Z</time>
      </trkpt>
      <trkpt lat="44.32824" lon="6.3278">
        <ele>1469.99</ele>
        <time>2022-04-16T13:02:27Z</time>
      </trkpt>
      <trkpt lat="44.32826" lon="6.32773">
        <ele>1469.03</ele>
        <time>2022-04-16T13:02:44Z</time>
      </trkpt>
      <trkpt lat="44.32831" lon="6.32769">
        <ele>1467.11</ele>
        <time>2022-04-16T13:03:01Z</time>
      </trkpt>
      <trkpt lat="44.32835" lon="6.32765">
        <ele>1465.19</ele>
        <time>2022-04-16T13:03:16Z</time>
      </trkpt>
      <trkpt lat="44.32836" lon="6.32762">
        <ele>1464.23</ele>
        <time>2022-04-16T13:03:35Z</time>
      </trkpt>
      <trkpt lat="44.32847" lon="6.32759">
        <ele>1462.78</ele>
        <time>2022-04-16T13:03:49Z</time>
      </trkpt>
      <trkpt lat="44.32848" lon="6.32754">
        <ele>1461.34</ele>
        <time>2022-04-16T13:03:53Z</time>
      </trkpt>
      <trkpt lat="44.32845" lon="6.32748">
        <ele>1459.9</ele>
        <time>2022-04-16T13:03:58Z</time>
      </trkpt>
      <trkpt lat="44.32835" lon="6.32736">
        <ele>1456.53</ele>
        <time>2022-04-16T13:04:13Z</time>
      </trkpt>
      <trkpt lat="44.32833" lon="6.32736">
        <ele>1456.05</ele>
        <time>2022-04-16T13:04:34Z</time>
      </trkpt>
      <trkpt lat="44.32817" lon="6.32735">
        <ele>1456.05</ele>
        <time>2022-04-16T13:04:50Z</time>
      </trkpt>
      <trkpt lat="44.32807" lon="6.32738">
        <ele>1458.94</ele>
        <time>2022-04-16T13:05:04Z</time>
      </trkpt>
      <trkpt lat="44.32807" lon="6.32739">
        <ele>1460.38</ele>
        <time>2022-04-16T13:05:18Z</time>
      </trkpt>
      <trkpt lat="44.32807" lon="6.32737">
        <ele>1463.26</ele>
        <time>2022-04-16T13:05:39Z</time>
      </trkpt>
      <trkpt lat="44.32806" lon="6.32731">
        <ele>1467.11</ele>
        <time>2022-04-16T13:06:04Z</time>
      </trkpt>
    </trkseg>
  </trk>
</gpx>